﻿<?xml version="1.0" encoding="UTF-8" standalone="no"?>
<gpx xmlns="http://www.topografix.com/GPX/1/1" xmlns:gpxtpx="http://www.garmin.com/xmlschemas/TrackPointExtension/v1" xmlns:xsi="http://www.w3.org/2001/XMLSchema-instance" creator="Hribi.net" version="1.1" xsi:schemaLocation="http://www.topografix.com/GPX/1/1 http://www.topografix.com/GPX/1/1/gpx.xsd http://www.garmin.com/xmlschemas/TrackPointExtension/v1 http://www.garmin.com/xmlschemas/TrackPointExtensionv1.xsd">
  <metadata>
    <name>GPS sled</name>
    <desc>www.hribi.net</desc>
    <author>
      <name>hribi.net</name>
    </author>
    <link href="http://www.hribi.net">
      <text>Hribi.net</text>
    </link>
  </metadata>
  <trk>
    <trkseg>
      <trkpt lat="46.358101" lon="15.108020">
        <ele>388.00</ele>
        <time>2018-01-22T13:13:37Z</time>
      </trkpt>
      <trkpt lat="46.358115" lon="15.108016">
        <ele>388.00</ele>
        <time>2018-01-22T13:13:39Z</time>
      </trkpt>
      <trkpt lat="46.358128" lon="15.108014">
        <ele>388.00</ele>
        <time>2018-01-22T13:13:40Z</time>
      </trkpt>
      <trkpt lat="46.358144" lon="15.108011">
        <ele>388.00</ele>
        <time>2018-01-22T13:13:41Z</time>
      </trkpt>
      <trkpt lat="46.358156" lon="15.108009">
        <ele>388.00</ele>
        <time>2018-01-22T13:13:43Z</time>
      </trkpt>
      <trkpt lat="46.358169" lon="15.108007">
        <ele>388.00</ele>
        <time>2018-01-22T13:13:45Z</time>
      </trkpt>
      <trkpt lat="46.358180" lon="15.108008">
        <ele>388.00</ele>
        <time>2018-01-22T13:13:46Z</time>
      </trkpt>
      <trkpt lat="46.358196" lon="15.108005">
        <ele>388.00</ele>
        <time>2018-01-22T13:13:47Z</time>
      </trkpt>
      <trkpt lat="46.358216" lon="15.108011">
        <ele>388.00</ele>
        <time>2018-01-22T13:13:48Z</time>
      </trkpt>
      <trkpt lat="46.358227" lon="15.108029">
        <ele>388.00</ele>
        <time>2018-01-22T13:13:50Z</time>
      </trkpt>
      <trkpt lat="46.358226" lon="15.108049">
        <ele>388.00</ele>
        <time>2018-01-22T13:13:51Z</time>
      </trkpt>
      <trkpt lat="46.358224" lon="15.108071">
        <ele>388.00</ele>
        <time>2018-01-22T13:13:52Z</time>
      </trkpt>
      <trkpt lat="46.358216" lon="15.108100">
        <ele>388.00</ele>
        <time>2018-01-22T13:13:53Z</time>
      </trkpt>
      <trkpt lat="46.358205" lon="15.108126">
        <ele>388.00</ele>
        <time>2018-01-22T13:13:54Z</time>
      </trkpt>
      <trkpt lat="46.358193" lon="15.108155">
        <ele>388.00</ele>
        <time>2018-01-22T13:13:55Z</time>
      </trkpt>
      <trkpt lat="46.358179" lon="15.108193">
        <ele>388.00</ele>
        <time>2018-01-22T13:13:56Z</time>
      </trkpt>
      <trkpt lat="46.358168" lon="15.108231">
        <ele>388.00</ele>
        <time>2018-01-22T13:13:57Z</time>
      </trkpt>
      <trkpt lat="46.358158" lon="15.108259">
        <ele>388.00</ele>
        <time>2018-01-22T13:13:58Z</time>
      </trkpt>
      <trkpt lat="46.358151" lon="15.108290">
        <ele>388.00</ele>
        <time>2018-01-22T13:13:59Z</time>
      </trkpt>
      <trkpt lat="46.358146" lon="15.108328">
        <ele>388.00</ele>
        <time>2018-01-22T13:14:00Z</time>
      </trkpt>
      <trkpt lat="46.358140" lon="15.108362">
        <ele>388.00</ele>
        <time>2018-01-22T13:14:01Z</time>
      </trkpt>
      <trkpt lat="46.358135" lon="15.108392">
        <ele>388.00</ele>
        <time>2018-01-22T13:14:02Z</time>
      </trkpt>
      <trkpt lat="46.358133" lon="15.108424">
        <ele>388.00</ele>
        <time>2018-01-22T13:14:03Z</time>
      </trkpt>
      <trkpt lat="46.358135" lon="15.108462">
        <ele>388.00</ele>
        <time>2018-01-22T13:14:04Z</time>
      </trkpt>
      <trkpt lat="46.358140" lon="15.108492">
        <ele>388.64</ele>
        <time>2018-01-22T13:14:05Z</time>
      </trkpt>
      <trkpt lat="46.358139" lon="15.108522">
        <ele>389.00</ele>
        <time>2018-01-22T13:14:06Z</time>
      </trkpt>
      <trkpt lat="46.358137" lon="15.108550">
        <ele>389.00</ele>
        <time>2018-01-22T13:14:07Z</time>
      </trkpt>
      <trkpt lat="46.358132" lon="15.108578">
        <ele>389.00</ele>
        <time>2018-01-22T13:14:08Z</time>
      </trkpt>
      <trkpt lat="46.358128" lon="15.108600">
        <ele>389.00</ele>
        <time>2018-01-22T13:14:09Z</time>
      </trkpt>
      <trkpt lat="46.358126" lon="15.108628">
        <ele>389.00</ele>
        <time>2018-01-22T13:14:10Z</time>
      </trkpt>
      <trkpt lat="46.358119" lon="15.108658">
        <ele>389.00</ele>
        <time>2018-01-22T13:14:11Z</time>
      </trkpt>
      <trkpt lat="46.358116" lon="15.108688">
        <ele>389.00</ele>
        <time>2018-01-22T13:14:12Z</time>
      </trkpt>
      <trkpt lat="46.358115" lon="15.108722">
        <ele>389.00</ele>
        <time>2018-01-22T13:14:13Z</time>
      </trkpt>
      <trkpt lat="46.358114" lon="15.108760">
        <ele>389.00</ele>
        <time>2018-01-22T13:14:14Z</time>
      </trkpt>
      <trkpt lat="46.358107" lon="15.108800">
        <ele>389.00</ele>
        <time>2018-01-22T13:14:15Z</time>
      </trkpt>
      <trkpt lat="46.358101" lon="15.108834">
        <ele>389.00</ele>
        <time>2018-01-22T13:14:16Z</time>
      </trkpt>
      <trkpt lat="46.358095" lon="15.108874">
        <ele>389.00</ele>
        <time>2018-01-22T13:14:17Z</time>
      </trkpt>
      <trkpt lat="46.358093" lon="15.108908">
        <ele>389.00</ele>
        <time>2018-01-22T13:14:18Z</time>
      </trkpt>
      <trkpt lat="46.358093" lon="15.108936">
        <ele>389.00</ele>
        <time>2018-01-22T13:14:19Z</time>
      </trkpt>
      <trkpt lat="46.358086" lon="15.108968">
        <ele>389.00</ele>
        <time>2018-01-22T13:14:20Z</time>
      </trkpt>
      <trkpt lat="46.358073" lon="15.109002">
        <ele>389.00</ele>
        <time>2018-01-22T13:14:21Z</time>
      </trkpt>
      <trkpt lat="46.358055" lon="15.109026">
        <ele>389.00</ele>
        <time>2018-01-22T13:14:22Z</time>
      </trkpt>
      <trkpt lat="46.358043" lon="15.109054">
        <ele>389.00</ele>
        <time>2018-01-22T13:14:23Z</time>
      </trkpt>
      <trkpt lat="46.358032" lon="15.109084">
        <ele>389.00</ele>
        <time>2018-01-22T13:14:24Z</time>
      </trkpt>
      <trkpt lat="46.358026" lon="15.109112">
        <ele>389.00</ele>
        <time>2018-01-22T13:14:25Z</time>
      </trkpt>
      <trkpt lat="46.358024" lon="15.109138">
        <ele>389.00</ele>
        <time>2018-01-22T13:14:26Z</time>
      </trkpt>
      <trkpt lat="46.358024" lon="15.109170">
        <ele>389.00</ele>
        <time>2018-01-22T13:14:27Z</time>
      </trkpt>
      <trkpt lat="46.358024" lon="15.109204">
        <ele>389.00</ele>
        <time>2018-01-22T13:14:28Z</time>
      </trkpt>
      <trkpt lat="46.358024" lon="15.109238">
        <ele>389.00</ele>
        <time>2018-01-22T13:14:29Z</time>
      </trkpt>
      <trkpt lat="46.358019" lon="15.109268">
        <ele>389.00</ele>
        <time>2018-01-22T13:14:30Z</time>
      </trkpt>
      <trkpt lat="46.358006" lon="15.109298">
        <ele>389.00</ele>
        <time>2018-01-22T13:14:31Z</time>
      </trkpt>
      <trkpt lat="46.357997" lon="15.109324">
        <ele>389.00</ele>
        <time>2018-01-22T13:14:32Z</time>
      </trkpt>
      <trkpt lat="46.357975" lon="15.109376">
        <ele>389.00</ele>
        <time>2018-01-22T13:14:34Z</time>
      </trkpt>
      <trkpt lat="46.357967" lon="15.109412">
        <ele>389.00</ele>
        <time>2018-01-22T13:14:35Z</time>
      </trkpt>
      <trkpt lat="46.357960" lon="15.109450">
        <ele>389.00</ele>
        <time>2018-01-22T13:14:36Z</time>
      </trkpt>
      <trkpt lat="46.357952" lon="15.109492">
        <ele>389.00</ele>
        <time>2018-01-22T13:14:37Z</time>
      </trkpt>
      <trkpt lat="46.357948" lon="15.109524">
        <ele>389.00</ele>
        <time>2018-01-22T13:14:38Z</time>
      </trkpt>
      <trkpt lat="46.357943" lon="15.109556">
        <ele>389.00</ele>
        <time>2018-01-22T13:14:39Z</time>
      </trkpt>
      <trkpt lat="46.357935" lon="15.109586">
        <ele>389.00</ele>
        <time>2018-01-22T13:14:40Z</time>
      </trkpt>
      <trkpt lat="46.357925" lon="15.109620">
        <ele>389.00</ele>
        <time>2018-01-22T13:14:41Z</time>
      </trkpt>
      <trkpt lat="46.357920" lon="15.109652">
        <ele>389.00</ele>
        <time>2018-01-22T13:14:42Z</time>
      </trkpt>
      <trkpt lat="46.357915" lon="15.109682">
        <ele>389.00</ele>
        <time>2018-01-22T13:14:43Z</time>
      </trkpt>
      <trkpt lat="46.357908" lon="15.109718">
        <ele>389.00</ele>
        <time>2018-01-22T13:14:44Z</time>
      </trkpt>
      <trkpt lat="46.357911" lon="15.109760">
        <ele>389.00</ele>
        <time>2018-01-22T13:14:45Z</time>
      </trkpt>
      <trkpt lat="46.357904" lon="15.109790">
        <ele>389.00</ele>
        <time>2018-01-22T13:14:46Z</time>
      </trkpt>
      <trkpt lat="46.357903" lon="15.109816">
        <ele>389.00</ele>
        <time>2018-01-22T13:14:47Z</time>
      </trkpt>
      <trkpt lat="46.357896" lon="15.109848">
        <ele>389.00</ele>
        <time>2018-01-22T13:14:48Z</time>
      </trkpt>
      <trkpt lat="46.357883" lon="15.109880">
        <ele>389.00</ele>
        <time>2018-01-22T13:14:49Z</time>
      </trkpt>
      <trkpt lat="46.357866" lon="15.109898">
        <ele>389.00</ele>
        <time>2018-01-22T13:14:50Z</time>
      </trkpt>
      <trkpt lat="46.357853" lon="15.109916">
        <ele>389.00</ele>
        <time>2018-01-22T13:14:51Z</time>
      </trkpt>
      <trkpt lat="46.357842" lon="15.109938">
        <ele>389.00</ele>
        <time>2018-01-22T13:14:52Z</time>
      </trkpt>
      <trkpt lat="46.357829" lon="15.109960">
        <ele>389.00</ele>
        <time>2018-01-22T13:14:53Z</time>
      </trkpt>
      <trkpt lat="46.357822" lon="15.109982">
        <ele>389.00</ele>
        <time>2018-01-22T13:14:54Z</time>
      </trkpt>
      <trkpt lat="46.357811" lon="15.110010">
        <ele>389.00</ele>
        <time>2018-01-22T13:14:55Z</time>
      </trkpt>
      <trkpt lat="46.357799" lon="15.110038">
        <ele>389.00</ele>
        <time>2018-01-22T13:14:56Z</time>
      </trkpt>
      <trkpt lat="46.357793" lon="15.110064">
        <ele>389.00</ele>
        <time>2018-01-22T13:14:57Z</time>
      </trkpt>
      <trkpt lat="46.357787" lon="15.110102">
        <ele>389.00</ele>
        <time>2018-01-22T13:14:58Z</time>
      </trkpt>
      <trkpt lat="46.357776" lon="15.110127">
        <ele>389.00</ele>
        <time>2018-01-22T13:14:59Z</time>
      </trkpt>
      <trkpt lat="46.357763" lon="15.110153">
        <ele>389.00</ele>
        <time>2018-01-22T13:15:00Z</time>
      </trkpt>
      <trkpt lat="46.357753" lon="15.110184">
        <ele>389.00</ele>
        <time>2018-01-22T13:15:01Z</time>
      </trkpt>
      <trkpt lat="46.357740" lon="15.110217">
        <ele>389.00</ele>
        <time>2018-01-22T13:15:02Z</time>
      </trkpt>
      <trkpt lat="46.357728" lon="15.110243">
        <ele>389.00</ele>
        <time>2018-01-22T13:15:03Z</time>
      </trkpt>
      <trkpt lat="46.357718" lon="15.110273">
        <ele>389.00</ele>
        <time>2018-01-22T13:15:04Z</time>
      </trkpt>
      <trkpt lat="46.357706" lon="15.110299">
        <ele>389.00</ele>
        <time>2018-01-22T13:15:05Z</time>
      </trkpt>
      <trkpt lat="46.357689" lon="15.110324">
        <ele>389.00</ele>
        <time>2018-01-22T13:15:06Z</time>
      </trkpt>
      <trkpt lat="46.357668" lon="15.110350">
        <ele>389.00</ele>
        <time>2018-01-22T13:15:07Z</time>
      </trkpt>
      <trkpt lat="46.357648" lon="15.110380">
        <ele>389.00</ele>
        <time>2018-01-22T13:15:08Z</time>
      </trkpt>
      <trkpt lat="46.357632" lon="15.110408">
        <ele>389.00</ele>
        <time>2018-01-22T13:15:09Z</time>
      </trkpt>
      <trkpt lat="46.357618" lon="15.110430">
        <ele>389.00</ele>
        <time>2018-01-22T13:15:10Z</time>
      </trkpt>
      <trkpt lat="46.357610" lon="15.110459">
        <ele>389.00</ele>
        <time>2018-01-22T13:15:11Z</time>
      </trkpt>
      <trkpt lat="46.357599" lon="15.110489">
        <ele>389.00</ele>
        <time>2018-01-22T13:15:12Z</time>
      </trkpt>
      <trkpt lat="46.357584" lon="15.110515">
        <ele>389.00</ele>
        <time>2018-01-22T13:15:13Z</time>
      </trkpt>
      <trkpt lat="46.357560" lon="15.110577">
        <ele>389.00</ele>
        <time>2018-01-22T13:15:15Z</time>
      </trkpt>
      <trkpt lat="46.357551" lon="15.110605">
        <ele>389.00</ele>
        <time>2018-01-22T13:15:16Z</time>
      </trkpt>
      <trkpt lat="46.357544" lon="15.110630">
        <ele>389.00</ele>
        <time>2018-01-22T13:15:17Z</time>
      </trkpt>
      <trkpt lat="46.357538" lon="15.110660">
        <ele>389.00</ele>
        <time>2018-01-22T13:15:18Z</time>
      </trkpt>
      <trkpt lat="46.357527" lon="15.110690">
        <ele>389.00</ele>
        <time>2018-01-22T13:15:19Z</time>
      </trkpt>
      <trkpt lat="46.357519" lon="15.110714">
        <ele>389.00</ele>
        <time>2018-01-22T13:15:20Z</time>
      </trkpt>
      <trkpt lat="46.357516" lon="15.110741">
        <ele>389.00</ele>
        <time>2018-01-22T13:15:21Z</time>
      </trkpt>
      <trkpt lat="46.357508" lon="15.110772">
        <ele>389.00</ele>
        <time>2018-01-22T13:15:22Z</time>
      </trkpt>
      <trkpt lat="46.357501" lon="15.110799">
        <ele>389.00</ele>
        <time>2018-01-22T13:15:23Z</time>
      </trkpt>
      <trkpt lat="46.357496" lon="15.110824">
        <ele>389.00</ele>
        <time>2018-01-22T13:15:24Z</time>
      </trkpt>
      <trkpt lat="46.357480" lon="15.110857">
        <ele>389.00</ele>
        <time>2018-01-22T13:15:25Z</time>
      </trkpt>
      <trkpt lat="46.357467" lon="15.110886">
        <ele>389.00</ele>
        <time>2018-01-22T13:15:26Z</time>
      </trkpt>
      <trkpt lat="46.357458" lon="15.110912">
        <ele>389.00</ele>
        <time>2018-01-22T13:15:27Z</time>
      </trkpt>
      <trkpt lat="46.357453" lon="15.110943">
        <ele>389.00</ele>
        <time>2018-01-22T13:15:28Z</time>
      </trkpt>
      <trkpt lat="46.357447" lon="15.110975">
        <ele>389.00</ele>
        <time>2018-01-22T13:15:29Z</time>
      </trkpt>
      <trkpt lat="46.357442" lon="15.111001">
        <ele>389.00</ele>
        <time>2018-01-22T13:15:30Z</time>
      </trkpt>
      <trkpt lat="46.357435" lon="15.111027">
        <ele>389.00</ele>
        <time>2018-01-22T13:15:31Z</time>
      </trkpt>
      <trkpt lat="46.357426" lon="15.111059">
        <ele>389.00</ele>
        <time>2018-01-22T13:15:32Z</time>
      </trkpt>
      <trkpt lat="46.357421" lon="15.111091">
        <ele>389.00</ele>
        <time>2018-01-22T13:15:33Z</time>
      </trkpt>
      <trkpt lat="46.357418" lon="15.111119">
        <ele>389.00</ele>
        <time>2018-01-22T13:15:34Z</time>
      </trkpt>
      <trkpt lat="46.357416" lon="15.111179">
        <ele>389.00</ele>
        <time>2018-01-22T13:15:36Z</time>
      </trkpt>
      <trkpt lat="46.357416" lon="15.111207">
        <ele>389.00</ele>
        <time>2018-01-22T13:15:37Z</time>
      </trkpt>
      <trkpt lat="46.357414" lon="15.111226">
        <ele>389.00</ele>
        <time>2018-01-22T13:15:38Z</time>
      </trkpt>
      <trkpt lat="46.357409" lon="15.111246">
        <ele>389.00</ele>
        <time>2018-01-22T13:15:39Z</time>
      </trkpt>
      <trkpt lat="46.357409" lon="15.111265">
        <ele>389.00</ele>
        <time>2018-01-22T13:15:40Z</time>
      </trkpt>
      <trkpt lat="46.357419" lon="15.111273">
        <ele>389.00</ele>
        <time>2018-01-22T13:15:41Z</time>
      </trkpt>
      <trkpt lat="46.357426" lon="15.111296">
        <ele>389.00</ele>
        <time>2018-01-22T13:15:43Z</time>
      </trkpt>
      <trkpt lat="46.357410" lon="15.111309">
        <ele>389.00</ele>
        <time>2018-01-22T13:15:48Z</time>
      </trkpt>
      <trkpt lat="46.357414" lon="15.111354">
        <ele>389.00</ele>
        <time>2018-01-22T13:15:51Z</time>
      </trkpt>
      <trkpt lat="46.357396" lon="15.111363">
        <ele>389.00</ele>
        <time>2018-01-22T13:15:53Z</time>
      </trkpt>
      <trkpt lat="46.357386" lon="15.111362">
        <ele>389.00</ele>
        <time>2018-01-22T13:15:56Z</time>
      </trkpt>
      <trkpt lat="46.357371" lon="15.111384">
        <ele>389.00</ele>
        <time>2018-01-22T13:15:58Z</time>
      </trkpt>
      <trkpt lat="46.357363" lon="15.111407">
        <ele>389.00</ele>
        <time>2018-01-22T13:15:59Z</time>
      </trkpt>
      <trkpt lat="46.357353" lon="15.111430">
        <ele>389.00</ele>
        <time>2018-01-22T13:16:00Z</time>
      </trkpt>
      <trkpt lat="46.357343" lon="15.111456">
        <ele>389.00</ele>
        <time>2018-01-22T13:16:01Z</time>
      </trkpt>
      <trkpt lat="46.357331" lon="15.111485">
        <ele>389.00</ele>
        <time>2018-01-22T13:16:02Z</time>
      </trkpt>
      <trkpt lat="46.357319" lon="15.111508">
        <ele>389.00</ele>
        <time>2018-01-22T13:16:03Z</time>
      </trkpt>
      <trkpt lat="46.357311" lon="15.111528">
        <ele>389.00</ele>
        <time>2018-01-22T13:16:04Z</time>
      </trkpt>
      <trkpt lat="46.357305" lon="15.111555">
        <ele>389.00</ele>
        <time>2018-01-22T13:16:05Z</time>
      </trkpt>
      <trkpt lat="46.357297" lon="15.111586">
        <ele>389.00</ele>
        <time>2018-01-22T13:16:06Z</time>
      </trkpt>
      <trkpt lat="46.357290" lon="15.111612">
        <ele>389.00</ele>
        <time>2018-01-22T13:16:07Z</time>
      </trkpt>
      <trkpt lat="46.357284" lon="15.111640">
        <ele>389.00</ele>
        <time>2018-01-22T13:16:08Z</time>
      </trkpt>
      <trkpt lat="46.357278" lon="15.111673">
        <ele>389.00</ele>
        <time>2018-01-22T13:16:09Z</time>
      </trkpt>
      <trkpt lat="46.357270" lon="15.111706">
        <ele>389.00</ele>
        <time>2018-01-22T13:16:10Z</time>
      </trkpt>
      <trkpt lat="46.357262" lon="15.111736">
        <ele>389.00</ele>
        <time>2018-01-22T13:16:11Z</time>
      </trkpt>
      <trkpt lat="46.357257" lon="15.111765">
        <ele>389.00</ele>
        <time>2018-01-22T13:16:12Z</time>
      </trkpt>
      <trkpt lat="46.357252" lon="15.111797">
        <ele>389.00</ele>
        <time>2018-01-22T13:16:13Z</time>
      </trkpt>
      <trkpt lat="46.357242" lon="15.111825">
        <ele>389.00</ele>
        <time>2018-01-22T13:16:14Z</time>
      </trkpt>
      <trkpt lat="46.357233" lon="15.111857">
        <ele>389.00</ele>
        <time>2018-01-22T13:16:15Z</time>
      </trkpt>
      <trkpt lat="46.357225" lon="15.111889">
        <ele>389.00</ele>
        <time>2018-01-22T13:16:16Z</time>
      </trkpt>
      <trkpt lat="46.357216" lon="15.111918">
        <ele>389.00</ele>
        <time>2018-01-22T13:16:17Z</time>
      </trkpt>
      <trkpt lat="46.357207" lon="15.111949">
        <ele>389.00</ele>
        <time>2018-01-22T13:16:18Z</time>
      </trkpt>
      <trkpt lat="46.357194" lon="15.111982">
        <ele>389.00</ele>
        <time>2018-01-22T13:16:19Z</time>
      </trkpt>
      <trkpt lat="46.357181" lon="15.112010">
        <ele>389.00</ele>
        <time>2018-01-22T13:16:20Z</time>
      </trkpt>
      <trkpt lat="46.357173" lon="15.112040">
        <ele>389.00</ele>
        <time>2018-01-22T13:16:21Z</time>
      </trkpt>
      <trkpt lat="46.357163" lon="15.112070">
        <ele>389.00</ele>
        <time>2018-01-22T13:16:22Z</time>
      </trkpt>
      <trkpt lat="46.357155" lon="15.112097">
        <ele>389.00</ele>
        <time>2018-01-22T13:16:23Z</time>
      </trkpt>
      <trkpt lat="46.357147" lon="15.112118">
        <ele>389.00</ele>
        <time>2018-01-22T13:16:24Z</time>
      </trkpt>
      <trkpt lat="46.357135" lon="15.112130">
        <ele>389.00</ele>
        <time>2018-01-22T13:16:25Z</time>
      </trkpt>
      <trkpt lat="46.357127" lon="15.112143">
        <ele>389.00</ele>
        <time>2018-01-22T13:16:26Z</time>
      </trkpt>
      <trkpt lat="46.357125" lon="15.112162">
        <ele>389.00</ele>
        <time>2018-01-22T13:16:27Z</time>
      </trkpt>
      <trkpt lat="46.357118" lon="15.112170">
        <ele>389.00</ele>
        <time>2018-01-22T13:16:28Z</time>
      </trkpt>
      <trkpt lat="46.357130" lon="15.112167">
        <ele>389.00</ele>
        <time>2018-01-22T13:16:31Z</time>
      </trkpt>
      <trkpt lat="46.357128" lon="15.112188">
        <ele>389.00</ele>
        <time>2018-01-22T13:16:32Z</time>
      </trkpt>
      <trkpt lat="46.357121" lon="15.112215">
        <ele>389.00</ele>
        <time>2018-01-22T13:16:33Z</time>
      </trkpt>
      <trkpt lat="46.357112" lon="15.112236">
        <ele>389.00</ele>
        <time>2018-01-22T13:16:34Z</time>
      </trkpt>
      <trkpt lat="46.357100" lon="15.112258">
        <ele>389.00</ele>
        <time>2018-01-22T13:16:35Z</time>
      </trkpt>
      <trkpt lat="46.357093" lon="15.112283">
        <ele>389.00</ele>
        <time>2018-01-22T13:16:36Z</time>
      </trkpt>
      <trkpt lat="46.357079" lon="15.112305">
        <ele>389.00</ele>
        <time>2018-01-22T13:16:37Z</time>
      </trkpt>
      <trkpt lat="46.357072" lon="15.112329">
        <ele>389.00</ele>
        <time>2018-01-22T13:16:38Z</time>
      </trkpt>
      <trkpt lat="46.357068" lon="15.112359">
        <ele>389.00</ele>
        <time>2018-01-22T13:16:39Z</time>
      </trkpt>
      <trkpt lat="46.357058" lon="15.112390">
        <ele>389.00</ele>
        <time>2018-01-22T13:16:40Z</time>
      </trkpt>
      <trkpt lat="46.357046" lon="15.112417">
        <ele>389.00</ele>
        <time>2018-01-22T13:16:41Z</time>
      </trkpt>
      <trkpt lat="46.357042" lon="15.112438">
        <ele>389.00</ele>
        <time>2018-01-22T13:16:42Z</time>
      </trkpt>
      <trkpt lat="46.357046" lon="15.112453">
        <ele>389.00</ele>
        <time>2018-01-22T13:16:43Z</time>
      </trkpt>
      <trkpt lat="46.357037" lon="15.112465">
        <ele>389.00</ele>
        <time>2018-01-22T13:16:44Z</time>
      </trkpt>
      <trkpt lat="46.357005" lon="15.112472">
        <ele>389.00</ele>
        <time>2018-01-22T13:16:46Z</time>
      </trkpt>
      <trkpt lat="46.356997" lon="15.112489">
        <ele>389.00</ele>
        <time>2018-01-22T13:16:47Z</time>
      </trkpt>
      <trkpt lat="46.356989" lon="15.112510">
        <ele>389.00</ele>
        <time>2018-01-22T13:16:48Z</time>
      </trkpt>
      <trkpt lat="46.356976" lon="15.112526">
        <ele>389.00</ele>
        <time>2018-01-22T13:16:49Z</time>
      </trkpt>
      <trkpt lat="46.356956" lon="15.112537">
        <ele>389.00</ele>
        <time>2018-01-22T13:16:50Z</time>
      </trkpt>
      <trkpt lat="46.356929" lon="15.112542">
        <ele>389.00</ele>
        <time>2018-01-22T13:16:51Z</time>
      </trkpt>
      <trkpt lat="46.356905" lon="15.112546">
        <ele>389.00</ele>
        <time>2018-01-22T13:16:52Z</time>
      </trkpt>
      <trkpt lat="46.356884" lon="15.112552">
        <ele>389.00</ele>
        <time>2018-01-22T13:16:53Z</time>
      </trkpt>
      <trkpt lat="46.356861" lon="15.112557">
        <ele>389.00</ele>
        <time>2018-01-22T13:16:54Z</time>
      </trkpt>
      <trkpt lat="46.356834" lon="15.112567">
        <ele>389.00</ele>
        <time>2018-01-22T13:16:55Z</time>
      </trkpt>
      <trkpt lat="46.356810" lon="15.112579">
        <ele>389.00</ele>
        <time>2018-01-22T13:16:56Z</time>
      </trkpt>
      <trkpt lat="46.356783" lon="15.112590">
        <ele>389.00</ele>
        <time>2018-01-22T13:16:57Z</time>
      </trkpt>
      <trkpt lat="46.356755" lon="15.112602">
        <ele>389.00</ele>
        <time>2018-01-22T13:16:58Z</time>
      </trkpt>
      <trkpt lat="46.356733" lon="15.112620">
        <ele>389.00</ele>
        <time>2018-01-22T13:16:59Z</time>
      </trkpt>
      <trkpt lat="46.356711" lon="15.112640">
        <ele>389.00</ele>
        <time>2018-01-22T13:17:00Z</time>
      </trkpt>
      <trkpt lat="46.356689" lon="15.112663">
        <ele>389.00</ele>
        <time>2018-01-22T13:17:01Z</time>
      </trkpt>
      <trkpt lat="46.356674" lon="15.112686">
        <ele>389.00</ele>
        <time>2018-01-22T13:17:02Z</time>
      </trkpt>
      <trkpt lat="46.356658" lon="15.112711">
        <ele>389.00</ele>
        <time>2018-01-22T13:17:03Z</time>
      </trkpt>
      <trkpt lat="46.356638" lon="15.112741">
        <ele>389.00</ele>
        <time>2018-01-22T13:17:04Z</time>
      </trkpt>
      <trkpt lat="46.356622" lon="15.112764">
        <ele>389.64</ele>
        <time>2018-01-22T13:17:05Z</time>
      </trkpt>
      <trkpt lat="46.356612" lon="15.112782">
        <ele>390.00</ele>
        <time>2018-01-22T13:17:06Z</time>
      </trkpt>
      <trkpt lat="46.356596" lon="15.112804">
        <ele>390.00</ele>
        <time>2018-01-22T13:17:07Z</time>
      </trkpt>
      <trkpt lat="46.356575" lon="15.112831">
        <ele>390.00</ele>
        <time>2018-01-22T13:17:08Z</time>
      </trkpt>
      <trkpt lat="46.356556" lon="15.112854">
        <ele>390.00</ele>
        <time>2018-01-22T13:17:09Z</time>
      </trkpt>
      <trkpt lat="46.356541" lon="15.112881">
        <ele>390.00</ele>
        <time>2018-01-22T13:17:10Z</time>
      </trkpt>
      <trkpt lat="46.356526" lon="15.112906">
        <ele>390.00</ele>
        <time>2018-01-22T13:17:11Z</time>
      </trkpt>
      <trkpt lat="46.356509" lon="15.112930">
        <ele>390.00</ele>
        <time>2018-01-22T13:17:12Z</time>
      </trkpt>
      <trkpt lat="46.356496" lon="15.112959">
        <ele>390.00</ele>
        <time>2018-01-22T13:17:13Z</time>
      </trkpt>
      <trkpt lat="46.356474" lon="15.112984">
        <ele>390.00</ele>
        <time>2018-01-22T13:17:14Z</time>
      </trkpt>
      <trkpt lat="46.356443" lon="15.113025">
        <ele>391.00</ele>
        <time>2018-01-22T13:17:16Z</time>
      </trkpt>
      <trkpt lat="46.356423" lon="15.113049">
        <ele>391.00</ele>
        <time>2018-01-22T13:17:17Z</time>
      </trkpt>
      <trkpt lat="46.356407" lon="15.113067">
        <ele>391.00</ele>
        <time>2018-01-22T13:17:18Z</time>
      </trkpt>
      <trkpt lat="46.356388" lon="15.113084">
        <ele>391.00</ele>
        <time>2018-01-22T13:17:19Z</time>
      </trkpt>
      <trkpt lat="46.356367" lon="15.113102">
        <ele>391.00</ele>
        <time>2018-01-22T13:17:20Z</time>
      </trkpt>
      <trkpt lat="46.356345" lon="15.113124">
        <ele>391.00</ele>
        <time>2018-01-22T13:17:21Z</time>
      </trkpt>
      <trkpt lat="46.356325" lon="15.113148">
        <ele>391.00</ele>
        <time>2018-01-22T13:17:22Z</time>
      </trkpt>
      <trkpt lat="46.356307" lon="15.113166">
        <ele>391.00</ele>
        <time>2018-01-22T13:17:23Z</time>
      </trkpt>
      <trkpt lat="46.356291" lon="15.113178">
        <ele>391.00</ele>
        <time>2018-01-22T13:17:24Z</time>
      </trkpt>
      <trkpt lat="46.356269" lon="15.113192">
        <ele>391.00</ele>
        <time>2018-01-22T13:17:25Z</time>
      </trkpt>
      <trkpt lat="46.356249" lon="15.113206">
        <ele>391.00</ele>
        <time>2018-01-22T13:17:26Z</time>
      </trkpt>
      <trkpt lat="46.356228" lon="15.113211">
        <ele>391.00</ele>
        <time>2018-01-22T13:17:27Z</time>
      </trkpt>
      <trkpt lat="46.356207" lon="15.113213">
        <ele>391.00</ele>
        <time>2018-01-22T13:17:28Z</time>
      </trkpt>
      <trkpt lat="46.356187" lon="15.113223">
        <ele>391.00</ele>
        <time>2018-01-22T13:17:29Z</time>
      </trkpt>
      <trkpt lat="46.356162" lon="15.113235">
        <ele>391.00</ele>
        <time>2018-01-22T13:17:30Z</time>
      </trkpt>
      <trkpt lat="46.356138" lon="15.113243">
        <ele>391.00</ele>
        <time>2018-01-22T13:17:31Z</time>
      </trkpt>
      <trkpt lat="46.356119" lon="15.113250">
        <ele>391.00</ele>
        <time>2018-01-22T13:17:32Z</time>
      </trkpt>
      <trkpt lat="46.356098" lon="15.113259">
        <ele>391.00</ele>
        <time>2018-01-22T13:17:33Z</time>
      </trkpt>
      <trkpt lat="46.356070" lon="15.113270">
        <ele>391.00</ele>
        <time>2018-01-22T13:17:34Z</time>
      </trkpt>
      <trkpt lat="46.356047" lon="15.113283">
        <ele>391.00</ele>
        <time>2018-01-22T13:17:35Z</time>
      </trkpt>
      <trkpt lat="46.356022" lon="15.113293">
        <ele>391.00</ele>
        <time>2018-01-22T13:17:36Z</time>
      </trkpt>
      <trkpt lat="46.355991" lon="15.113308">
        <ele>391.00</ele>
        <time>2018-01-22T13:17:37Z</time>
      </trkpt>
      <trkpt lat="46.355967" lon="15.113311">
        <ele>391.00</ele>
        <time>2018-01-22T13:17:38Z</time>
      </trkpt>
      <trkpt lat="46.355944" lon="15.113313">
        <ele>391.00</ele>
        <time>2018-01-22T13:17:39Z</time>
      </trkpt>
      <trkpt lat="46.355916" lon="15.113323">
        <ele>391.00</ele>
        <time>2018-01-22T13:17:40Z</time>
      </trkpt>
      <trkpt lat="46.355890" lon="15.113332">
        <ele>391.00</ele>
        <time>2018-01-22T13:17:41Z</time>
      </trkpt>
      <trkpt lat="46.355866" lon="15.113333">
        <ele>391.00</ele>
        <time>2018-01-22T13:17:42Z</time>
      </trkpt>
      <trkpt lat="46.355863" lon="15.113295">
        <ele>391.00</ele>
        <time>2018-01-22T13:17:44Z</time>
      </trkpt>
      <trkpt lat="46.355864" lon="15.113276">
        <ele>392.00</ele>
        <time>2018-01-22T13:17:48Z</time>
      </trkpt>
      <trkpt lat="46.355869" lon="15.113262">
        <ele>392.00</ele>
        <time>2018-01-22T13:17:49Z</time>
      </trkpt>
      <trkpt lat="46.355880" lon="15.113261">
        <ele>392.00</ele>
        <time>2018-01-22T13:17:51Z</time>
      </trkpt>
      <trkpt lat="46.355889" lon="15.113259">
        <ele>392.00</ele>
        <time>2018-01-22T13:17:53Z</time>
      </trkpt>
      <trkpt lat="46.355894" lon="15.113267">
        <ele>392.00</ele>
        <time>2018-01-22T13:17:59Z</time>
      </trkpt>
      <trkpt lat="46.355868" lon="15.113272">
        <ele>392.00</ele>
        <time>2018-01-22T13:18:56Z</time>
      </trkpt>
      <trkpt lat="46.355849" lon="15.113275">
        <ele>392.00</ele>
        <time>2018-01-22T13:18:57Z</time>
      </trkpt>
      <trkpt lat="46.355824" lon="15.113275">
        <ele>392.00</ele>
        <time>2018-01-22T13:18:58Z</time>
      </trkpt>
      <trkpt lat="46.355776" lon="15.113276">
        <ele>392.00</ele>
        <time>2018-01-22T13:19:00Z</time>
      </trkpt>
      <trkpt lat="46.355753" lon="15.113280">
        <ele>392.00</ele>
        <time>2018-01-22T13:19:01Z</time>
      </trkpt>
      <trkpt lat="46.355726" lon="15.113280">
        <ele>392.00</ele>
        <time>2018-01-22T13:19:02Z</time>
      </trkpt>
      <trkpt lat="46.355692" lon="15.113281">
        <ele>392.00</ele>
        <time>2018-01-22T13:19:03Z</time>
      </trkpt>
      <trkpt lat="46.355664" lon="15.113282">
        <ele>392.00</ele>
        <time>2018-01-22T13:19:04Z</time>
      </trkpt>
      <trkpt lat="46.355638" lon="15.113284">
        <ele>392.00</ele>
        <time>2018-01-22T13:19:05Z</time>
      </trkpt>
      <trkpt lat="46.355611" lon="15.113277">
        <ele>392.00</ele>
        <time>2018-01-22T13:19:06Z</time>
      </trkpt>
      <trkpt lat="46.355582" lon="15.113268">
        <ele>392.00</ele>
        <time>2018-01-22T13:19:07Z</time>
      </trkpt>
      <trkpt lat="46.355558" lon="15.113263">
        <ele>392.00</ele>
        <time>2018-01-22T13:19:08Z</time>
      </trkpt>
      <trkpt lat="46.355530" lon="15.113262">
        <ele>392.00</ele>
        <time>2018-01-22T13:19:09Z</time>
      </trkpt>
      <trkpt lat="46.355499" lon="15.113261">
        <ele>392.00</ele>
        <time>2018-01-22T13:19:10Z</time>
      </trkpt>
      <trkpt lat="46.355470" lon="15.113259">
        <ele>392.00</ele>
        <time>2018-01-22T13:19:11Z</time>
      </trkpt>
      <trkpt lat="46.355444" lon="15.113256">
        <ele>392.00</ele>
        <time>2018-01-22T13:19:12Z</time>
      </trkpt>
      <trkpt lat="46.355414" lon="15.113247">
        <ele>392.00</ele>
        <time>2018-01-22T13:19:13Z</time>
      </trkpt>
      <trkpt lat="46.355383" lon="15.113235">
        <ele>392.00</ele>
        <time>2018-01-22T13:19:14Z</time>
      </trkpt>
      <trkpt lat="46.355328" lon="15.113225">
        <ele>394.00</ele>
        <time>2018-01-22T13:19:16Z</time>
      </trkpt>
      <trkpt lat="46.355304" lon="15.113211">
        <ele>394.00</ele>
        <time>2018-01-22T13:19:17Z</time>
      </trkpt>
      <trkpt lat="46.355280" lon="15.113202">
        <ele>394.00</ele>
        <time>2018-01-22T13:19:18Z</time>
      </trkpt>
      <trkpt lat="46.355254" lon="15.113199">
        <ele>394.00</ele>
        <time>2018-01-22T13:19:19Z</time>
      </trkpt>
      <trkpt lat="46.355220" lon="15.113179">
        <ele>394.00</ele>
        <time>2018-01-22T13:19:20Z</time>
      </trkpt>
      <trkpt lat="46.355194" lon="15.113161">
        <ele>394.00</ele>
        <time>2018-01-22T13:19:21Z</time>
      </trkpt>
      <trkpt lat="46.355168" lon="15.113152">
        <ele>394.00</ele>
        <time>2018-01-22T13:19:22Z</time>
      </trkpt>
      <trkpt lat="46.355143" lon="15.113138">
        <ele>394.00</ele>
        <time>2018-01-22T13:19:23Z</time>
      </trkpt>
      <trkpt lat="46.355120" lon="15.113120">
        <ele>394.00</ele>
        <time>2018-01-22T13:19:24Z</time>
      </trkpt>
      <trkpt lat="46.355098" lon="15.113104">
        <ele>395.27</ele>
        <time>2018-01-22T13:19:25Z</time>
      </trkpt>
      <trkpt lat="46.355076" lon="15.113096">
        <ele>396.00</ele>
        <time>2018-01-22T13:19:26Z</time>
      </trkpt>
      <trkpt lat="46.355054" lon="15.113081">
        <ele>396.00</ele>
        <time>2018-01-22T13:19:27Z</time>
      </trkpt>
      <trkpt lat="46.355026" lon="15.113071">
        <ele>396.00</ele>
        <time>2018-01-22T13:19:28Z</time>
      </trkpt>
      <trkpt lat="46.355004" lon="15.113058">
        <ele>396.00</ele>
        <time>2018-01-22T13:19:29Z</time>
      </trkpt>
      <trkpt lat="46.354976" lon="15.113044">
        <ele>396.00</ele>
        <time>2018-01-22T13:19:30Z</time>
      </trkpt>
      <trkpt lat="46.354949" lon="15.113035">
        <ele>396.00</ele>
        <time>2018-01-22T13:19:31Z</time>
      </trkpt>
      <trkpt lat="46.354922" lon="15.113030">
        <ele>396.00</ele>
        <time>2018-01-22T13:19:32Z</time>
      </trkpt>
      <trkpt lat="46.354896" lon="15.113011">
        <ele>396.00</ele>
        <time>2018-01-22T13:19:33Z</time>
      </trkpt>
      <trkpt lat="46.354870" lon="15.112993">
        <ele>396.00</ele>
        <time>2018-01-22T13:19:34Z</time>
      </trkpt>
      <trkpt lat="46.354842" lon="15.112991">
        <ele>396.00</ele>
        <time>2018-01-22T13:19:35Z</time>
      </trkpt>
      <trkpt lat="46.354814" lon="15.112989">
        <ele>396.00</ele>
        <time>2018-01-22T13:19:36Z</time>
      </trkpt>
      <trkpt lat="46.354790" lon="15.112978">
        <ele>396.00</ele>
        <time>2018-01-22T13:19:37Z</time>
      </trkpt>
      <trkpt lat="46.354764" lon="15.112968">
        <ele>396.00</ele>
        <time>2018-01-22T13:19:38Z</time>
      </trkpt>
      <trkpt lat="46.354734" lon="15.112961">
        <ele>396.00</ele>
        <time>2018-01-22T13:19:39Z</time>
      </trkpt>
      <trkpt lat="46.354706" lon="15.112948">
        <ele>396.00</ele>
        <time>2018-01-22T13:19:40Z</time>
      </trkpt>
      <trkpt lat="46.354676" lon="15.112940">
        <ele>396.00</ele>
        <time>2018-01-22T13:19:41Z</time>
      </trkpt>
      <trkpt lat="46.354652" lon="15.112929">
        <ele>396.00</ele>
        <time>2018-01-22T13:19:42Z</time>
      </trkpt>
      <trkpt lat="46.354626" lon="15.112922">
        <ele>396.00</ele>
        <time>2018-01-22T13:19:43Z</time>
      </trkpt>
      <trkpt lat="46.354600" lon="15.112914">
        <ele>396.00</ele>
        <time>2018-01-22T13:19:44Z</time>
      </trkpt>
      <trkpt lat="46.354578" lon="15.112903">
        <ele>397.27</ele>
        <time>2018-01-22T13:19:45Z</time>
      </trkpt>
      <trkpt lat="46.354553" lon="15.112886">
        <ele>398.00</ele>
        <time>2018-01-22T13:19:46Z</time>
      </trkpt>
      <trkpt lat="46.354529" lon="15.112869">
        <ele>398.00</ele>
        <time>2018-01-22T13:19:47Z</time>
      </trkpt>
      <trkpt lat="46.354508" lon="15.112856">
        <ele>398.00</ele>
        <time>2018-01-22T13:19:48Z</time>
      </trkpt>
      <trkpt lat="46.354482" lon="15.112844">
        <ele>398.00</ele>
        <time>2018-01-22T13:19:49Z</time>
      </trkpt>
      <trkpt lat="46.354460" lon="15.112829">
        <ele>398.00</ele>
        <time>2018-01-22T13:19:50Z</time>
      </trkpt>
      <trkpt lat="46.354433" lon="15.112817">
        <ele>398.00</ele>
        <time>2018-01-22T13:19:51Z</time>
      </trkpt>
      <trkpt lat="46.354408" lon="15.112805">
        <ele>398.00</ele>
        <time>2018-01-22T13:19:52Z</time>
      </trkpt>
      <trkpt lat="46.354380" lon="15.112788">
        <ele>398.00</ele>
        <time>2018-01-22T13:19:53Z</time>
      </trkpt>
      <trkpt lat="46.354361" lon="15.112766">
        <ele>398.00</ele>
        <time>2018-01-22T13:19:54Z</time>
      </trkpt>
      <trkpt lat="46.354342" lon="15.112751">
        <ele>398.64</ele>
        <time>2018-01-22T13:19:55Z</time>
      </trkpt>
      <trkpt lat="46.354314" lon="15.112743">
        <ele>399.00</ele>
        <time>2018-01-22T13:19:56Z</time>
      </trkpt>
      <trkpt lat="46.354296" lon="15.112727">
        <ele>399.00</ele>
        <time>2018-01-22T13:19:57Z</time>
      </trkpt>
      <trkpt lat="46.354274" lon="15.112716">
        <ele>399.00</ele>
        <time>2018-01-22T13:19:58Z</time>
      </trkpt>
      <trkpt lat="46.354252" lon="15.112713">
        <ele>399.00</ele>
        <time>2018-01-22T13:19:59Z</time>
      </trkpt>
      <trkpt lat="46.354225" lon="15.112710">
        <ele>399.00</ele>
        <time>2018-01-22T13:20:00Z</time>
      </trkpt>
      <trkpt lat="46.354200" lon="15.112700">
        <ele>399.00</ele>
        <time>2018-01-22T13:20:01Z</time>
      </trkpt>
      <trkpt lat="46.354172" lon="15.112692">
        <ele>399.00</ele>
        <time>2018-01-22T13:20:02Z</time>
      </trkpt>
      <trkpt lat="46.354140" lon="15.112685">
        <ele>399.00</ele>
        <time>2018-01-22T13:20:03Z</time>
      </trkpt>
      <trkpt lat="46.354116" lon="15.112674">
        <ele>399.00</ele>
        <time>2018-01-22T13:20:04Z</time>
      </trkpt>
      <trkpt lat="46.354090" lon="15.112664">
        <ele>399.00</ele>
        <time>2018-01-22T13:20:05Z</time>
      </trkpt>
      <trkpt lat="46.354061" lon="15.112660">
        <ele>399.00</ele>
        <time>2018-01-22T13:20:06Z</time>
      </trkpt>
      <trkpt lat="46.354037" lon="15.112654">
        <ele>399.00</ele>
        <time>2018-01-22T13:20:07Z</time>
      </trkpt>
      <trkpt lat="46.354018" lon="15.112648">
        <ele>399.00</ele>
        <time>2018-01-22T13:20:08Z</time>
      </trkpt>
      <trkpt lat="46.354001" lon="15.112636">
        <ele>399.00</ele>
        <time>2018-01-22T13:20:09Z</time>
      </trkpt>
      <trkpt lat="46.353978" lon="15.112620">
        <ele>399.00</ele>
        <time>2018-01-22T13:20:10Z</time>
      </trkpt>
      <trkpt lat="46.353958" lon="15.112606">
        <ele>399.00</ele>
        <time>2018-01-22T13:20:11Z</time>
      </trkpt>
      <trkpt lat="46.353933" lon="15.112597">
        <ele>399.00</ele>
        <time>2018-01-22T13:20:12Z</time>
      </trkpt>
      <trkpt lat="46.353913" lon="15.112580">
        <ele>399.00</ele>
        <time>2018-01-22T13:20:13Z</time>
      </trkpt>
      <trkpt lat="46.353896" lon="15.112565">
        <ele>399.00</ele>
        <time>2018-01-22T13:20:14Z</time>
      </trkpt>
      <trkpt lat="46.353881" lon="15.112547">
        <ele>400.27</ele>
        <time>2018-01-22T13:20:15Z</time>
      </trkpt>
      <trkpt lat="46.353866" lon="15.112527">
        <ele>401.00</ele>
        <time>2018-01-22T13:20:16Z</time>
      </trkpt>
      <trkpt lat="46.353847" lon="15.112506">
        <ele>401.00</ele>
        <time>2018-01-22T13:20:17Z</time>
      </trkpt>
      <trkpt lat="46.353824" lon="15.112495">
        <ele>401.00</ele>
        <time>2018-01-22T13:20:18Z</time>
      </trkpt>
      <trkpt lat="46.353799" lon="15.112487">
        <ele>401.00</ele>
        <time>2018-01-22T13:20:19Z</time>
      </trkpt>
      <trkpt lat="46.353778" lon="15.112481">
        <ele>401.00</ele>
        <time>2018-01-22T13:20:20Z</time>
      </trkpt>
      <trkpt lat="46.353758" lon="15.112471">
        <ele>401.00</ele>
        <time>2018-01-22T13:20:21Z</time>
      </trkpt>
      <trkpt lat="46.353736" lon="15.112455">
        <ele>401.00</ele>
        <time>2018-01-22T13:20:22Z</time>
      </trkpt>
      <trkpt lat="46.353711" lon="15.112437">
        <ele>401.00</ele>
        <time>2018-01-22T13:20:23Z</time>
      </trkpt>
      <trkpt lat="46.353679" lon="15.112433">
        <ele>401.00</ele>
        <time>2018-01-22T13:20:24Z</time>
      </trkpt>
      <trkpt lat="46.353646" lon="15.112430">
        <ele>401.64</ele>
        <time>2018-01-22T13:20:25Z</time>
      </trkpt>
      <trkpt lat="46.353620" lon="15.112422">
        <ele>402.00</ele>
        <time>2018-01-22T13:20:26Z</time>
      </trkpt>
      <trkpt lat="46.353597" lon="15.112413">
        <ele>402.00</ele>
        <time>2018-01-22T13:20:27Z</time>
      </trkpt>
      <trkpt lat="46.353570" lon="15.112407">
        <ele>402.00</ele>
        <time>2018-01-22T13:20:28Z</time>
      </trkpt>
      <trkpt lat="46.353547" lon="15.112396">
        <ele>402.00</ele>
        <time>2018-01-22T13:20:29Z</time>
      </trkpt>
      <trkpt lat="46.353525" lon="15.112384">
        <ele>402.00</ele>
        <time>2018-01-22T13:20:30Z</time>
      </trkpt>
      <trkpt lat="46.353500" lon="15.112378">
        <ele>402.00</ele>
        <time>2018-01-22T13:20:31Z</time>
      </trkpt>
      <trkpt lat="46.353478" lon="15.112372">
        <ele>402.00</ele>
        <time>2018-01-22T13:20:32Z</time>
      </trkpt>
      <trkpt lat="46.353455" lon="15.112360">
        <ele>402.00</ele>
        <time>2018-01-22T13:20:33Z</time>
      </trkpt>
      <trkpt lat="46.353434" lon="15.112352">
        <ele>402.00</ele>
        <time>2018-01-22T13:20:34Z</time>
      </trkpt>
      <trkpt lat="46.353412" lon="15.112341">
        <ele>402.64</ele>
        <time>2018-01-22T13:20:35Z</time>
      </trkpt>
      <trkpt lat="46.353390" lon="15.112325">
        <ele>403.00</ele>
        <time>2018-01-22T13:20:36Z</time>
      </trkpt>
      <trkpt lat="46.353369" lon="15.112312">
        <ele>403.00</ele>
        <time>2018-01-22T13:20:37Z</time>
      </trkpt>
      <trkpt lat="46.353343" lon="15.112302">
        <ele>403.00</ele>
        <time>2018-01-22T13:20:38Z</time>
      </trkpt>
      <trkpt lat="46.353315" lon="15.112287">
        <ele>403.00</ele>
        <time>2018-01-22T13:20:39Z</time>
      </trkpt>
      <trkpt lat="46.353290" lon="15.112274">
        <ele>403.00</ele>
        <time>2018-01-22T13:20:40Z</time>
      </trkpt>
      <trkpt lat="46.353268" lon="15.112265">
        <ele>403.00</ele>
        <time>2018-01-22T13:20:41Z</time>
      </trkpt>
      <trkpt lat="46.353246" lon="15.112256">
        <ele>403.00</ele>
        <time>2018-01-22T13:20:42Z</time>
      </trkpt>
      <trkpt lat="46.353228" lon="15.112242">
        <ele>403.00</ele>
        <time>2018-01-22T13:20:43Z</time>
      </trkpt>
      <trkpt lat="46.353204" lon="15.112239">
        <ele>403.00</ele>
        <time>2018-01-22T13:20:44Z</time>
      </trkpt>
      <trkpt lat="46.353167" lon="15.112245">
        <ele>403.00</ele>
        <time>2018-01-22T13:20:45Z</time>
      </trkpt>
      <trkpt lat="46.353133" lon="15.112247">
        <ele>403.00</ele>
        <time>2018-01-22T13:20:46Z</time>
      </trkpt>
      <trkpt lat="46.353109" lon="15.112238">
        <ele>403.00</ele>
        <time>2018-01-22T13:20:47Z</time>
      </trkpt>
      <trkpt lat="46.353064" lon="15.112212">
        <ele>403.00</ele>
        <time>2018-01-22T13:20:49Z</time>
      </trkpt>
      <trkpt lat="46.353044" lon="15.112201">
        <ele>403.00</ele>
        <time>2018-01-22T13:20:50Z</time>
      </trkpt>
      <trkpt lat="46.353021" lon="15.112192">
        <ele>403.00</ele>
        <time>2018-01-22T13:20:51Z</time>
      </trkpt>
      <trkpt lat="46.352993" lon="15.112189">
        <ele>403.00</ele>
        <time>2018-01-22T13:20:52Z</time>
      </trkpt>
      <trkpt lat="46.352968" lon="15.112183">
        <ele>403.00</ele>
        <time>2018-01-22T13:20:53Z</time>
      </trkpt>
      <trkpt lat="46.352942" lon="15.112177">
        <ele>403.00</ele>
        <time>2018-01-22T13:20:54Z</time>
      </trkpt>
      <trkpt lat="46.352892" lon="15.112161">
        <ele>404.00</ele>
        <time>2018-01-22T13:20:56Z</time>
      </trkpt>
      <trkpt lat="46.352846" lon="15.112139">
        <ele>404.00</ele>
        <time>2018-01-22T13:20:58Z</time>
      </trkpt>
      <trkpt lat="46.352819" lon="15.112124">
        <ele>404.00</ele>
        <time>2018-01-22T13:20:59Z</time>
      </trkpt>
      <trkpt lat="46.352799" lon="15.112114">
        <ele>404.00</ele>
        <time>2018-01-22T13:21:00Z</time>
      </trkpt>
      <trkpt lat="46.352780" lon="15.112100">
        <ele>404.00</ele>
        <time>2018-01-22T13:21:01Z</time>
      </trkpt>
      <trkpt lat="46.352757" lon="15.112085">
        <ele>404.00</ele>
        <time>2018-01-22T13:21:02Z</time>
      </trkpt>
      <trkpt lat="46.352735" lon="15.112074">
        <ele>404.00</ele>
        <time>2018-01-22T13:21:03Z</time>
      </trkpt>
      <trkpt lat="46.352715" lon="15.112065">
        <ele>404.00</ele>
        <time>2018-01-22T13:21:04Z</time>
      </trkpt>
      <trkpt lat="46.352690" lon="15.112061">
        <ele>404.64</ele>
        <time>2018-01-22T13:21:05Z</time>
      </trkpt>
      <trkpt lat="46.352667" lon="15.112053">
        <ele>405.00</ele>
        <time>2018-01-22T13:21:06Z</time>
      </trkpt>
      <trkpt lat="46.352650" lon="15.112049">
        <ele>405.00</ele>
        <time>2018-01-22T13:21:07Z</time>
      </trkpt>
      <trkpt lat="46.352631" lon="15.112036">
        <ele>405.00</ele>
        <time>2018-01-22T13:21:08Z</time>
      </trkpt>
      <trkpt lat="46.352611" lon="15.112021">
        <ele>405.00</ele>
        <time>2018-01-22T13:21:09Z</time>
      </trkpt>
      <trkpt lat="46.352592" lon="15.112008">
        <ele>405.00</ele>
        <time>2018-01-22T13:21:10Z</time>
      </trkpt>
      <trkpt lat="46.352572" lon="15.111995">
        <ele>405.00</ele>
        <time>2018-01-22T13:21:11Z</time>
      </trkpt>
      <trkpt lat="46.352551" lon="15.111980">
        <ele>405.00</ele>
        <time>2018-01-22T13:21:12Z</time>
      </trkpt>
      <trkpt lat="46.352526" lon="15.111969">
        <ele>405.00</ele>
        <time>2018-01-22T13:21:13Z</time>
      </trkpt>
      <trkpt lat="46.352499" lon="15.111960">
        <ele>405.00</ele>
        <time>2018-01-22T13:21:14Z</time>
      </trkpt>
      <trkpt lat="46.352479" lon="15.111948">
        <ele>406.27</ele>
        <time>2018-01-22T13:21:15Z</time>
      </trkpt>
      <trkpt lat="46.352455" lon="15.111936">
        <ele>407.00</ele>
        <time>2018-01-22T13:21:16Z</time>
      </trkpt>
      <trkpt lat="46.352435" lon="15.111923">
        <ele>407.00</ele>
        <time>2018-01-22T13:21:17Z</time>
      </trkpt>
      <trkpt lat="46.352414" lon="15.111913">
        <ele>407.00</ele>
        <time>2018-01-22T13:21:18Z</time>
      </trkpt>
      <trkpt lat="46.352387" lon="15.111903">
        <ele>407.00</ele>
        <time>2018-01-22T13:21:19Z</time>
      </trkpt>
      <trkpt lat="46.352365" lon="15.111898">
        <ele>407.00</ele>
        <time>2018-01-22T13:21:20Z</time>
      </trkpt>
      <trkpt lat="46.352341" lon="15.111892">
        <ele>407.00</ele>
        <time>2018-01-22T13:21:21Z</time>
      </trkpt>
      <trkpt lat="46.352319" lon="15.111882">
        <ele>407.00</ele>
        <time>2018-01-22T13:21:22Z</time>
      </trkpt>
      <trkpt lat="46.352295" lon="15.111871">
        <ele>407.00</ele>
        <time>2018-01-22T13:21:23Z</time>
      </trkpt>
      <trkpt lat="46.352274" lon="15.111867">
        <ele>407.00</ele>
        <time>2018-01-22T13:21:24Z</time>
      </trkpt>
      <trkpt lat="46.352259" lon="15.111863">
        <ele>407.00</ele>
        <time>2018-01-22T13:21:25Z</time>
      </trkpt>
      <trkpt lat="46.352242" lon="15.111856">
        <ele>407.00</ele>
        <time>2018-01-22T13:21:26Z</time>
      </trkpt>
      <trkpt lat="46.352231" lon="15.111852">
        <ele>407.00</ele>
        <time>2018-01-22T13:21:27Z</time>
      </trkpt>
      <trkpt lat="46.352211" lon="15.111851">
        <ele>407.00</ele>
        <time>2018-01-22T13:21:28Z</time>
      </trkpt>
      <trkpt lat="46.352197" lon="15.111855">
        <ele>407.00</ele>
        <time>2018-01-22T13:21:29Z</time>
      </trkpt>
      <trkpt lat="46.352181" lon="15.111858">
        <ele>407.00</ele>
        <time>2018-01-22T13:21:30Z</time>
      </trkpt>
      <trkpt lat="46.352167" lon="15.111848">
        <ele>407.00</ele>
        <time>2018-01-22T13:21:31Z</time>
      </trkpt>
      <trkpt lat="46.352152" lon="15.111837">
        <ele>407.00</ele>
        <time>2018-01-22T13:21:32Z</time>
      </trkpt>
      <trkpt lat="46.352140" lon="15.111827">
        <ele>407.00</ele>
        <time>2018-01-22T13:21:33Z</time>
      </trkpt>
      <trkpt lat="46.352133" lon="15.111818">
        <ele>407.00</ele>
        <time>2018-01-22T13:21:34Z</time>
      </trkpt>
      <trkpt lat="46.352119" lon="15.111818">
        <ele>408.00</ele>
        <time>2018-01-22T13:21:47Z</time>
      </trkpt>
      <trkpt lat="46.352102" lon="15.111825">
        <ele>408.00</ele>
        <time>2018-01-22T13:21:49Z</time>
      </trkpt>
      <trkpt lat="46.352089" lon="15.111833">
        <ele>408.00</ele>
        <time>2018-01-22T13:21:50Z</time>
      </trkpt>
      <trkpt lat="46.352070" lon="15.111845">
        <ele>408.00</ele>
        <time>2018-01-22T13:21:51Z</time>
      </trkpt>
      <trkpt lat="46.352056" lon="15.111853">
        <ele>408.00</ele>
        <time>2018-01-22T13:21:52Z</time>
      </trkpt>
      <trkpt lat="46.352040" lon="15.111861">
        <ele>408.00</ele>
        <time>2018-01-22T13:21:53Z</time>
      </trkpt>
      <trkpt lat="46.352021" lon="15.111869">
        <ele>408.00</ele>
        <time>2018-01-22T13:21:54Z</time>
      </trkpt>
      <trkpt lat="46.352002" lon="15.111872">
        <ele>408.64</ele>
        <time>2018-01-22T13:21:55Z</time>
      </trkpt>
      <trkpt lat="46.351982" lon="15.111873">
        <ele>409.00</ele>
        <time>2018-01-22T13:21:56Z</time>
      </trkpt>
      <trkpt lat="46.351969" lon="15.111876">
        <ele>409.00</ele>
        <time>2018-01-22T13:21:57Z</time>
      </trkpt>
      <trkpt lat="46.351961" lon="15.111887">
        <ele>409.00</ele>
        <time>2018-01-22T13:21:58Z</time>
      </trkpt>
      <trkpt lat="46.351952" lon="15.111905">
        <ele>409.00</ele>
        <time>2018-01-22T13:21:59Z</time>
      </trkpt>
      <trkpt lat="46.351946" lon="15.111933">
        <ele>409.00</ele>
        <time>2018-01-22T13:22:00Z</time>
      </trkpt>
      <trkpt lat="46.351943" lon="15.111966">
        <ele>409.00</ele>
        <time>2018-01-22T13:22:01Z</time>
      </trkpt>
      <trkpt lat="46.351938" lon="15.111998">
        <ele>409.00</ele>
        <time>2018-01-22T13:22:02Z</time>
      </trkpt>
      <trkpt lat="46.351933" lon="15.112029">
        <ele>409.00</ele>
        <time>2018-01-22T13:22:03Z</time>
      </trkpt>
      <trkpt lat="46.351926" lon="15.112062">
        <ele>409.00</ele>
        <time>2018-01-22T13:22:04Z</time>
      </trkpt>
      <trkpt lat="46.351921" lon="15.112091">
        <ele>408.36</ele>
        <time>2018-01-22T13:22:05Z</time>
      </trkpt>
      <trkpt lat="46.351921" lon="15.112120">
        <ele>408.00</ele>
        <time>2018-01-22T13:22:06Z</time>
      </trkpt>
      <trkpt lat="46.351914" lon="15.112152">
        <ele>408.00</ele>
        <time>2018-01-22T13:22:07Z</time>
      </trkpt>
      <trkpt lat="46.351909" lon="15.112185">
        <ele>408.00</ele>
        <time>2018-01-22T13:22:08Z</time>
      </trkpt>
      <trkpt lat="46.351903" lon="15.112213">
        <ele>408.00</ele>
        <time>2018-01-22T13:22:09Z</time>
      </trkpt>
      <trkpt lat="46.351893" lon="15.112240">
        <ele>408.00</ele>
        <time>2018-01-22T13:22:10Z</time>
      </trkpt>
      <trkpt lat="46.351885" lon="15.112273">
        <ele>408.00</ele>
        <time>2018-01-22T13:22:11Z</time>
      </trkpt>
      <trkpt lat="46.351878" lon="15.112305">
        <ele>408.00</ele>
        <time>2018-01-22T13:22:12Z</time>
      </trkpt>
      <trkpt lat="46.351874" lon="15.112340">
        <ele>408.00</ele>
        <time>2018-01-22T13:22:13Z</time>
      </trkpt>
      <trkpt lat="46.351873" lon="15.112376">
        <ele>408.00</ele>
        <time>2018-01-22T13:22:14Z</time>
      </trkpt>
      <trkpt lat="46.351876" lon="15.112405">
        <ele>408.64</ele>
        <time>2018-01-22T13:22:15Z</time>
      </trkpt>
      <trkpt lat="46.351879" lon="15.112433">
        <ele>409.00</ele>
        <time>2018-01-22T13:22:16Z</time>
      </trkpt>
      <trkpt lat="46.351877" lon="15.112465">
        <ele>409.00</ele>
        <time>2018-01-22T13:22:17Z</time>
      </trkpt>
      <trkpt lat="46.351884" lon="15.112494">
        <ele>409.00</ele>
        <time>2018-01-22T13:22:18Z</time>
      </trkpt>
      <trkpt lat="46.351892" lon="15.112517">
        <ele>409.00</ele>
        <time>2018-01-22T13:22:19Z</time>
      </trkpt>
      <trkpt lat="46.351905" lon="15.112548">
        <ele>409.00</ele>
        <time>2018-01-22T13:22:20Z</time>
      </trkpt>
      <trkpt lat="46.351919" lon="15.112580">
        <ele>409.00</ele>
        <time>2018-01-22T13:22:21Z</time>
      </trkpt>
      <trkpt lat="46.351922" lon="15.112603">
        <ele>409.00</ele>
        <time>2018-01-22T13:22:22Z</time>
      </trkpt>
      <trkpt lat="46.351924" lon="15.112630">
        <ele>409.00</ele>
        <time>2018-01-22T13:22:23Z</time>
      </trkpt>
      <trkpt lat="46.351917" lon="15.112660">
        <ele>409.00</ele>
        <time>2018-01-22T13:22:24Z</time>
      </trkpt>
      <trkpt lat="46.351916" lon="15.112688">
        <ele>410.27</ele>
        <time>2018-01-22T13:22:25Z</time>
      </trkpt>
      <trkpt lat="46.351908" lon="15.112715">
        <ele>411.00</ele>
        <time>2018-01-22T13:22:26Z</time>
      </trkpt>
      <trkpt lat="46.351899" lon="15.112739">
        <ele>411.00</ele>
        <time>2018-01-22T13:22:27Z</time>
      </trkpt>
      <trkpt lat="46.351880" lon="15.112763">
        <ele>411.00</ele>
        <time>2018-01-22T13:22:28Z</time>
      </trkpt>
      <trkpt lat="46.351873" lon="15.112779">
        <ele>411.00</ele>
        <time>2018-01-22T13:22:29Z</time>
      </trkpt>
      <trkpt lat="46.351872" lon="15.112803">
        <ele>411.00</ele>
        <time>2018-01-22T13:22:30Z</time>
      </trkpt>
      <trkpt lat="46.351866" lon="15.112817">
        <ele>411.00</ele>
        <time>2018-01-22T13:22:31Z</time>
      </trkpt>
      <trkpt lat="46.351871" lon="15.112847">
        <ele>411.00</ele>
        <time>2018-01-22T13:22:33Z</time>
      </trkpt>
      <trkpt lat="46.351870" lon="15.112862">
        <ele>411.00</ele>
        <time>2018-01-22T13:22:34Z</time>
      </trkpt>
      <trkpt lat="46.351856" lon="15.112872">
        <ele>412.91</ele>
        <time>2018-01-22T13:22:35Z</time>
      </trkpt>
      <trkpt lat="46.351844" lon="15.112886">
        <ele>414.00</ele>
        <time>2018-01-22T13:22:36Z</time>
      </trkpt>
      <trkpt lat="46.351823" lon="15.112936">
        <ele>414.00</ele>
        <time>2018-01-22T13:22:38Z</time>
      </trkpt>
      <trkpt lat="46.351814" lon="15.112955">
        <ele>414.00</ele>
        <time>2018-01-22T13:22:39Z</time>
      </trkpt>
      <trkpt lat="46.351803" lon="15.112965">
        <ele>414.64</ele>
        <time>2018-01-22T13:22:40Z</time>
      </trkpt>
      <trkpt lat="46.351794" lon="15.112988">
        <ele>415.00</ele>
        <time>2018-01-22T13:22:42Z</time>
      </trkpt>
      <trkpt lat="46.351781" lon="15.113006">
        <ele>415.00</ele>
        <time>2018-01-22T13:22:43Z</time>
      </trkpt>
      <trkpt lat="46.351764" lon="15.113025">
        <ele>415.00</ele>
        <time>2018-01-22T13:22:44Z</time>
      </trkpt>
      <trkpt lat="46.351751" lon="15.113038">
        <ele>416.27</ele>
        <time>2018-01-22T13:22:45Z</time>
      </trkpt>
      <trkpt lat="46.351743" lon="15.113049">
        <ele>417.00</ele>
        <time>2018-01-22T13:22:47Z</time>
      </trkpt>
      <trkpt lat="46.351741" lon="15.113064">
        <ele>417.00</ele>
        <time>2018-01-22T13:22:49Z</time>
      </trkpt>
      <trkpt lat="46.351734" lon="15.113077">
        <ele>418.26</ele>
        <time>2018-01-22T13:22:50Z</time>
      </trkpt>
      <trkpt lat="46.351722" lon="15.113092">
        <ele>419.00</ele>
        <time>2018-01-22T13:22:51Z</time>
      </trkpt>
      <trkpt lat="46.351710" lon="15.113103">
        <ele>419.00</ele>
        <time>2018-01-22T13:22:52Z</time>
      </trkpt>
      <trkpt lat="46.351704" lon="15.113114">
        <ele>419.00</ele>
        <time>2018-01-22T13:22:53Z</time>
      </trkpt>
      <trkpt lat="46.351699" lon="15.113131">
        <ele>419.64</ele>
        <time>2018-01-22T13:22:55Z</time>
      </trkpt>
      <trkpt lat="46.351689" lon="15.113140">
        <ele>420.00</ele>
        <time>2018-01-22T13:22:56Z</time>
      </trkpt>
      <trkpt lat="46.351678" lon="15.113153">
        <ele>420.00</ele>
        <time>2018-01-22T13:22:57Z</time>
      </trkpt>
      <trkpt lat="46.351666" lon="15.113170">
        <ele>420.00</ele>
        <time>2018-01-22T13:22:58Z</time>
      </trkpt>
      <trkpt lat="46.351662" lon="15.113182">
        <ele>420.00</ele>
        <time>2018-01-22T13:22:59Z</time>
      </trkpt>
      <trkpt lat="46.351653" lon="15.113189">
        <ele>420.00</ele>
        <time>2018-01-22T13:23:00Z</time>
      </trkpt>
      <trkpt lat="46.351643" lon="15.113197">
        <ele>420.00</ele>
        <time>2018-01-22T13:23:01Z</time>
      </trkpt>
      <trkpt lat="46.351634" lon="15.113208">
        <ele>420.00</ele>
        <time>2018-01-22T13:23:02Z</time>
      </trkpt>
      <trkpt lat="46.351619" lon="15.113227">
        <ele>420.00</ele>
        <time>2018-01-22T13:23:03Z</time>
      </trkpt>
      <trkpt lat="46.351605" lon="15.113243">
        <ele>420.00</ele>
        <time>2018-01-22T13:23:04Z</time>
      </trkpt>
      <trkpt lat="46.351588" lon="15.113262">
        <ele>421.27</ele>
        <time>2018-01-22T13:23:05Z</time>
      </trkpt>
      <trkpt lat="46.351583" lon="15.113277">
        <ele>422.00</ele>
        <time>2018-01-22T13:23:07Z</time>
      </trkpt>
      <trkpt lat="46.351572" lon="15.113284">
        <ele>422.00</ele>
        <time>2018-01-22T13:23:08Z</time>
      </trkpt>
      <trkpt lat="46.351563" lon="15.113304">
        <ele>422.00</ele>
        <time>2018-01-22T13:23:09Z</time>
      </trkpt>
      <trkpt lat="46.351547" lon="15.113326">
        <ele>422.00</ele>
        <time>2018-01-22T13:23:10Z</time>
      </trkpt>
      <trkpt lat="46.351536" lon="15.113341">
        <ele>422.00</ele>
        <time>2018-01-22T13:23:11Z</time>
      </trkpt>
      <trkpt lat="46.351534" lon="15.113354">
        <ele>422.00</ele>
        <time>2018-01-22T13:23:12Z</time>
      </trkpt>
      <trkpt lat="46.351524" lon="15.113362">
        <ele>422.00</ele>
        <time>2018-01-22T13:23:14Z</time>
      </trkpt>
      <trkpt lat="46.351515" lon="15.113369">
        <ele>423.91</ele>
        <time>2018-01-22T13:23:15Z</time>
      </trkpt>
      <trkpt lat="46.351499" lon="15.113373">
        <ele>425.00</ele>
        <time>2018-01-22T13:23:16Z</time>
      </trkpt>
      <trkpt lat="46.351484" lon="15.113380">
        <ele>425.00</ele>
        <time>2018-01-22T13:23:17Z</time>
      </trkpt>
      <trkpt lat="46.351474" lon="15.113386">
        <ele>425.00</ele>
        <time>2018-01-22T13:23:18Z</time>
      </trkpt>
      <trkpt lat="46.351464" lon="15.113394">
        <ele>425.64</ele>
        <time>2018-01-22T13:23:20Z</time>
      </trkpt>
      <trkpt lat="46.351449" lon="15.113396">
        <ele>426.00</ele>
        <time>2018-01-22T13:23:22Z</time>
      </trkpt>
      <trkpt lat="46.351431" lon="15.113401">
        <ele>426.64</ele>
        <time>2018-01-22T13:23:25Z</time>
      </trkpt>
      <trkpt lat="46.351418" lon="15.113403">
        <ele>427.00</ele>
        <time>2018-01-22T13:23:26Z</time>
      </trkpt>
      <trkpt lat="46.351401" lon="15.113412">
        <ele>427.00</ele>
        <time>2018-01-22T13:23:28Z</time>
      </trkpt>
      <trkpt lat="46.351387" lon="15.113420">
        <ele>427.00</ele>
        <time>2018-01-22T13:23:29Z</time>
      </trkpt>
      <trkpt lat="46.351373" lon="15.113427">
        <ele>427.00</ele>
        <time>2018-01-22T13:23:30Z</time>
      </trkpt>
      <trkpt lat="46.351362" lon="15.113433">
        <ele>427.00</ele>
        <time>2018-01-22T13:23:31Z</time>
      </trkpt>
      <trkpt lat="46.351349" lon="15.113447">
        <ele>427.00</ele>
        <time>2018-01-22T13:23:32Z</time>
      </trkpt>
      <trkpt lat="46.351336" lon="15.113459">
        <ele>427.00</ele>
        <time>2018-01-22T13:23:33Z</time>
      </trkpt>
      <trkpt lat="46.351325" lon="15.113468">
        <ele>427.00</ele>
        <time>2018-01-22T13:23:34Z</time>
      </trkpt>
      <trkpt lat="46.351317" lon="15.113476">
        <ele>428.27</ele>
        <time>2018-01-22T13:23:35Z</time>
      </trkpt>
      <trkpt lat="46.351305" lon="15.113475">
        <ele>429.00</ele>
        <time>2018-01-22T13:23:37Z</time>
      </trkpt>
      <trkpt lat="46.351286" lon="15.113491">
        <ele>429.00</ele>
        <time>2018-01-22T13:23:39Z</time>
      </trkpt>
      <trkpt lat="46.351278" lon="15.113499">
        <ele>429.00</ele>
        <time>2018-01-22T13:23:40Z</time>
      </trkpt>
      <trkpt lat="46.351270" lon="15.113508">
        <ele>429.00</ele>
        <time>2018-01-22T13:23:41Z</time>
      </trkpt>
      <trkpt lat="46.351259" lon="15.113519">
        <ele>429.00</ele>
        <time>2018-01-22T13:23:42Z</time>
      </trkpt>
      <trkpt lat="46.351247" lon="15.113529">
        <ele>429.00</ele>
        <time>2018-01-22T13:23:43Z</time>
      </trkpt>
      <trkpt lat="46.351239" lon="15.113541">
        <ele>429.00</ele>
        <time>2018-01-22T13:23:44Z</time>
      </trkpt>
      <trkpt lat="46.351229" lon="15.113556">
        <ele>430.91</ele>
        <time>2018-01-22T13:23:45Z</time>
      </trkpt>
      <trkpt lat="46.351217" lon="15.113580">
        <ele>432.00</ele>
        <time>2018-01-22T13:23:46Z</time>
      </trkpt>
      <trkpt lat="46.351210" lon="15.113603">
        <ele>432.00</ele>
        <time>2018-01-22T13:23:47Z</time>
      </trkpt>
      <trkpt lat="46.351210" lon="15.113623">
        <ele>432.00</ele>
        <time>2018-01-22T13:23:48Z</time>
      </trkpt>
      <trkpt lat="46.351206" lon="15.113639">
        <ele>432.00</ele>
        <time>2018-01-22T13:23:49Z</time>
      </trkpt>
      <trkpt lat="46.351199" lon="15.113652">
        <ele>432.00</ele>
        <time>2018-01-22T13:23:50Z</time>
      </trkpt>
      <trkpt lat="46.351188" lon="15.113675">
        <ele>432.00</ele>
        <time>2018-01-22T13:23:52Z</time>
      </trkpt>
      <trkpt lat="46.351180" lon="15.113687">
        <ele>432.00</ele>
        <time>2018-01-22T13:23:53Z</time>
      </trkpt>
      <trkpt lat="46.351193" lon="15.113700">
        <ele>433.27</ele>
        <time>2018-01-22T13:23:55Z</time>
      </trkpt>
      <trkpt lat="46.351189" lon="15.113714">
        <ele>434.00</ele>
        <time>2018-01-22T13:23:56Z</time>
      </trkpt>
      <trkpt lat="46.351185" lon="15.113731">
        <ele>434.00</ele>
        <time>2018-01-22T13:23:57Z</time>
      </trkpt>
      <trkpt lat="46.351180" lon="15.113751">
        <ele>434.00</ele>
        <time>2018-01-22T13:23:58Z</time>
      </trkpt>
      <trkpt lat="46.351175" lon="15.113774">
        <ele>434.00</ele>
        <time>2018-01-22T13:23:59Z</time>
      </trkpt>
      <trkpt lat="46.351169" lon="15.113801">
        <ele>434.00</ele>
        <time>2018-01-22T13:24:00Z</time>
      </trkpt>
      <trkpt lat="46.351161" lon="15.113832">
        <ele>434.00</ele>
        <time>2018-01-22T13:24:01Z</time>
      </trkpt>
      <trkpt lat="46.351150" lon="15.113855">
        <ele>434.00</ele>
        <time>2018-01-22T13:24:02Z</time>
      </trkpt>
      <trkpt lat="46.351147" lon="15.113871">
        <ele>434.00</ele>
        <time>2018-01-22T13:24:03Z</time>
      </trkpt>
      <trkpt lat="46.351150" lon="15.113892">
        <ele>434.00</ele>
        <time>2018-01-22T13:24:05Z</time>
      </trkpt>
      <trkpt lat="46.351154" lon="15.113907">
        <ele>434.00</ele>
        <time>2018-01-22T13:24:06Z</time>
      </trkpt>
      <trkpt lat="46.351154" lon="15.113931">
        <ele>434.00</ele>
        <time>2018-01-22T13:24:07Z</time>
      </trkpt>
      <trkpt lat="46.351150" lon="15.113958">
        <ele>434.00</ele>
        <time>2018-01-22T13:24:08Z</time>
      </trkpt>
      <trkpt lat="46.351141" lon="15.113982">
        <ele>434.00</ele>
        <time>2018-01-22T13:24:09Z</time>
      </trkpt>
      <trkpt lat="46.351135" lon="15.113995">
        <ele>434.00</ele>
        <time>2018-01-22T13:24:10Z</time>
      </trkpt>
      <trkpt lat="46.351141" lon="15.114012">
        <ele>434.00</ele>
        <time>2018-01-22T13:24:12Z</time>
      </trkpt>
      <trkpt lat="46.351141" lon="15.114027">
        <ele>434.00</ele>
        <time>2018-01-22T13:24:14Z</time>
      </trkpt>
      <trkpt lat="46.351136" lon="15.114048">
        <ele>435.27</ele>
        <time>2018-01-22T13:24:15Z</time>
      </trkpt>
      <trkpt lat="46.351130" lon="15.114073">
        <ele>436.00</ele>
        <time>2018-01-22T13:24:16Z</time>
      </trkpt>
      <trkpt lat="46.351125" lon="15.114092">
        <ele>436.00</ele>
        <time>2018-01-22T13:24:17Z</time>
      </trkpt>
      <trkpt lat="46.351123" lon="15.114110">
        <ele>436.00</ele>
        <time>2018-01-22T13:24:19Z</time>
      </trkpt>
      <trkpt lat="46.351115" lon="15.114136">
        <ele>436.00</ele>
        <time>2018-01-22T13:24:21Z</time>
      </trkpt>
      <trkpt lat="46.351111" lon="15.114163">
        <ele>436.00</ele>
        <time>2018-01-22T13:24:22Z</time>
      </trkpt>
      <trkpt lat="46.351102" lon="15.114191">
        <ele>436.00</ele>
        <time>2018-01-22T13:24:23Z</time>
      </trkpt>
      <trkpt lat="46.351094" lon="15.114212">
        <ele>436.00</ele>
        <time>2018-01-22T13:24:24Z</time>
      </trkpt>
      <trkpt lat="46.351093" lon="15.114227">
        <ele>437.27</ele>
        <time>2018-01-22T13:24:25Z</time>
      </trkpt>
      <trkpt lat="46.351095" lon="15.114249">
        <ele>438.00</ele>
        <time>2018-01-22T13:24:27Z</time>
      </trkpt>
      <trkpt lat="46.351095" lon="15.114266">
        <ele>438.00</ele>
        <time>2018-01-22T13:24:28Z</time>
      </trkpt>
      <trkpt lat="46.351096" lon="15.114290">
        <ele>438.00</ele>
        <time>2018-01-22T13:24:29Z</time>
      </trkpt>
      <trkpt lat="46.351098" lon="15.114316">
        <ele>438.00</ele>
        <time>2018-01-22T13:24:30Z</time>
      </trkpt>
      <trkpt lat="46.351094" lon="15.114332">
        <ele>438.00</ele>
        <time>2018-01-22T13:24:31Z</time>
      </trkpt>
      <trkpt lat="46.351095" lon="15.114350">
        <ele>438.00</ele>
        <time>2018-01-22T13:24:33Z</time>
      </trkpt>
      <trkpt lat="46.351089" lon="15.114379">
        <ele>438.64</ele>
        <time>2018-01-22T13:24:35Z</time>
      </trkpt>
      <trkpt lat="46.351085" lon="15.114397">
        <ele>439.00</ele>
        <time>2018-01-22T13:24:36Z</time>
      </trkpt>
      <trkpt lat="46.351086" lon="15.114414">
        <ele>439.00</ele>
        <time>2018-01-22T13:24:37Z</time>
      </trkpt>
      <trkpt lat="46.351081" lon="15.114437">
        <ele>439.00</ele>
        <time>2018-01-22T13:24:39Z</time>
      </trkpt>
      <trkpt lat="46.351074" lon="15.114462">
        <ele>439.00</ele>
        <time>2018-01-22T13:24:41Z</time>
      </trkpt>
      <trkpt lat="46.351072" lon="15.114483">
        <ele>439.00</ele>
        <time>2018-01-22T13:24:42Z</time>
      </trkpt>
      <trkpt lat="46.351066" lon="15.114502">
        <ele>439.00</ele>
        <time>2018-01-22T13:24:43Z</time>
      </trkpt>
      <trkpt lat="46.351065" lon="15.114524">
        <ele>440.91</ele>
        <time>2018-01-22T13:24:45Z</time>
      </trkpt>
      <trkpt lat="46.351066" lon="15.114548">
        <ele>442.00</ele>
        <time>2018-01-22T13:24:47Z</time>
      </trkpt>
      <trkpt lat="46.351063" lon="15.114569">
        <ele>442.00</ele>
        <time>2018-01-22T13:24:48Z</time>
      </trkpt>
      <trkpt lat="46.351052" lon="15.114595">
        <ele>442.00</ele>
        <time>2018-01-22T13:24:49Z</time>
      </trkpt>
      <trkpt lat="46.351045" lon="15.114610">
        <ele>443.26</ele>
        <time>2018-01-22T13:24:50Z</time>
      </trkpt>
      <trkpt lat="46.351036" lon="15.114631">
        <ele>444.00</ele>
        <time>2018-01-22T13:24:52Z</time>
      </trkpt>
      <trkpt lat="46.351036" lon="15.114648">
        <ele>444.00</ele>
        <time>2018-01-22T13:24:53Z</time>
      </trkpt>
      <trkpt lat="46.351034" lon="15.114667">
        <ele>444.00</ele>
        <time>2018-01-22T13:24:54Z</time>
      </trkpt>
      <trkpt lat="46.351032" lon="15.114690">
        <ele>444.64</ele>
        <time>2018-01-22T13:24:55Z</time>
      </trkpt>
      <trkpt lat="46.351023" lon="15.114714">
        <ele>445.00</ele>
        <time>2018-01-22T13:24:56Z</time>
      </trkpt>
      <trkpt lat="46.351022" lon="15.114730">
        <ele>445.00</ele>
        <time>2018-01-22T13:24:57Z</time>
      </trkpt>
      <trkpt lat="46.351012" lon="15.114750">
        <ele>445.00</ele>
        <time>2018-01-22T13:24:59Z</time>
      </trkpt>
      <trkpt lat="46.351006" lon="15.114760">
        <ele>445.63</ele>
        <time>2018-01-22T13:25:00Z</time>
      </trkpt>
      <trkpt lat="46.351003" lon="15.114776">
        <ele>446.00</ele>
        <time>2018-01-22T13:25:01Z</time>
      </trkpt>
      <trkpt lat="46.351000" lon="15.114801">
        <ele>446.00</ele>
        <time>2018-01-22T13:25:02Z</time>
      </trkpt>
      <trkpt lat="46.350997" lon="15.114821">
        <ele>446.00</ele>
        <time>2018-01-22T13:25:03Z</time>
      </trkpt>
      <trkpt lat="46.350995" lon="15.114840">
        <ele>447.27</ele>
        <time>2018-01-22T13:25:05Z</time>
      </trkpt>
      <trkpt lat="46.350998" lon="15.114864">
        <ele>448.00</ele>
        <time>2018-01-22T13:25:07Z</time>
      </trkpt>
      <trkpt lat="46.351002" lon="15.114887">
        <ele>448.00</ele>
        <time>2018-01-22T13:25:08Z</time>
      </trkpt>
      <trkpt lat="46.351004" lon="15.114912">
        <ele>448.00</ele>
        <time>2018-01-22T13:25:09Z</time>
      </trkpt>
      <trkpt lat="46.351003" lon="15.114932">
        <ele>448.64</ele>
        <time>2018-01-22T13:25:10Z</time>
      </trkpt>
      <trkpt lat="46.351007" lon="15.114956">
        <ele>449.00</ele>
        <time>2018-01-22T13:25:12Z</time>
      </trkpt>
      <trkpt lat="46.351012" lon="15.114968">
        <ele>449.00</ele>
        <time>2018-01-22T13:25:13Z</time>
      </trkpt>
      <trkpt lat="46.351019" lon="15.114985">
        <ele>449.00</ele>
        <time>2018-01-22T13:25:14Z</time>
      </trkpt>
      <trkpt lat="46.351020" lon="15.115012">
        <ele>450.27</ele>
        <time>2018-01-22T13:25:15Z</time>
      </trkpt>
      <trkpt lat="46.351011" lon="15.115032">
        <ele>451.00</ele>
        <time>2018-01-22T13:25:16Z</time>
      </trkpt>
      <trkpt lat="46.351006" lon="15.115046">
        <ele>451.00</ele>
        <time>2018-01-22T13:25:17Z</time>
      </trkpt>
      <trkpt lat="46.351008" lon="15.115060">
        <ele>451.00</ele>
        <time>2018-01-22T13:25:19Z</time>
      </trkpt>
      <trkpt lat="46.351012" lon="15.115083">
        <ele>451.00</ele>
        <time>2018-01-22T13:25:21Z</time>
      </trkpt>
      <trkpt lat="46.351023" lon="15.115106">
        <ele>451.00</ele>
        <time>2018-01-22T13:25:22Z</time>
      </trkpt>
      <trkpt lat="46.351030" lon="15.115133">
        <ele>451.00</ele>
        <time>2018-01-22T13:25:23Z</time>
      </trkpt>
      <trkpt lat="46.351037" lon="15.115155">
        <ele>451.00</ele>
        <time>2018-01-22T13:25:24Z</time>
      </trkpt>
      <trkpt lat="46.351047" lon="15.115176">
        <ele>451.00</ele>
        <time>2018-01-22T13:25:26Z</time>
      </trkpt>
      <trkpt lat="46.351060" lon="15.115192">
        <ele>451.00</ele>
        <time>2018-01-22T13:25:28Z</time>
      </trkpt>
      <trkpt lat="46.351069" lon="15.115205">
        <ele>451.00</ele>
        <time>2018-01-22T13:25:29Z</time>
      </trkpt>
      <trkpt lat="46.351072" lon="15.115221">
        <ele>451.00</ele>
        <time>2018-01-22T13:25:30Z</time>
      </trkpt>
      <trkpt lat="46.351061" lon="15.115241">
        <ele>451.00</ele>
        <time>2018-01-22T13:25:32Z</time>
      </trkpt>
      <trkpt lat="46.351054" lon="15.115256">
        <ele>451.00</ele>
        <time>2018-01-22T13:25:34Z</time>
      </trkpt>
      <trkpt lat="46.351057" lon="15.115275">
        <ele>453.00</ele>
        <time>2018-01-22T13:25:36Z</time>
      </trkpt>
      <trkpt lat="46.351052" lon="15.115291">
        <ele>453.00</ele>
        <time>2018-01-22T13:25:37Z</time>
      </trkpt>
      <trkpt lat="46.351052" lon="15.115307">
        <ele>453.00</ele>
        <time>2018-01-22T13:25:38Z</time>
      </trkpt>
      <trkpt lat="46.351058" lon="15.115325">
        <ele>453.00</ele>
        <time>2018-01-22T13:25:39Z</time>
      </trkpt>
      <trkpt lat="46.351068" lon="15.115343">
        <ele>453.00</ele>
        <time>2018-01-22T13:25:40Z</time>
      </trkpt>
      <trkpt lat="46.351055" lon="15.115360">
        <ele>453.00</ele>
        <time>2018-01-22T13:25:42Z</time>
      </trkpt>
      <trkpt lat="46.351043" lon="15.115371">
        <ele>453.00</ele>
        <time>2018-01-22T13:25:43Z</time>
      </trkpt>
      <trkpt lat="46.351022" lon="15.115385">
        <ele>453.00</ele>
        <time>2018-01-22T13:25:44Z</time>
      </trkpt>
      <trkpt lat="46.350991" lon="15.115394">
        <ele>454.27</ele>
        <time>2018-01-22T13:25:45Z</time>
      </trkpt>
      <trkpt lat="46.350968" lon="15.115402">
        <ele>455.00</ele>
        <time>2018-01-22T13:25:46Z</time>
      </trkpt>
      <trkpt lat="46.350946" lon="15.115413">
        <ele>455.00</ele>
        <time>2018-01-22T13:25:47Z</time>
      </trkpt>
      <trkpt lat="46.350931" lon="15.115418">
        <ele>455.00</ele>
        <time>2018-01-22T13:25:48Z</time>
      </trkpt>
      <trkpt lat="46.350922" lon="15.115424">
        <ele>455.00</ele>
        <time>2018-01-22T13:25:49Z</time>
      </trkpt>
      <trkpt lat="46.350919" lon="15.115441">
        <ele>455.00</ele>
        <time>2018-01-22T13:25:50Z</time>
      </trkpt>
      <trkpt lat="46.350906" lon="15.115445">
        <ele>455.00</ele>
        <time>2018-01-22T13:25:51Z</time>
      </trkpt>
      <trkpt lat="46.350886" lon="15.115449">
        <ele>455.00</ele>
        <time>2018-01-22T13:25:52Z</time>
      </trkpt>
      <trkpt lat="46.350869" lon="15.115459">
        <ele>455.00</ele>
        <time>2018-01-22T13:25:54Z</time>
      </trkpt>
      <trkpt lat="46.350860" lon="15.115460">
        <ele>456.27</ele>
        <time>2018-01-22T13:25:55Z</time>
      </trkpt>
      <trkpt lat="46.350843" lon="15.115471">
        <ele>457.00</ele>
        <time>2018-01-22T13:25:57Z</time>
      </trkpt>
      <trkpt lat="46.350833" lon="15.115476">
        <ele>457.00</ele>
        <time>2018-01-22T13:25:58Z</time>
      </trkpt>
      <trkpt lat="46.350824" lon="15.115481">
        <ele>457.00</ele>
        <time>2018-01-22T13:25:59Z</time>
      </trkpt>
      <trkpt lat="46.350813" lon="15.115481">
        <ele>457.00</ele>
        <time>2018-01-22T13:26:00Z</time>
      </trkpt>
      <trkpt lat="46.350796" lon="15.115479">
        <ele>457.00</ele>
        <time>2018-01-22T13:26:01Z</time>
      </trkpt>
      <trkpt lat="46.350783" lon="15.115481">
        <ele>457.00</ele>
        <time>2018-01-22T13:26:02Z</time>
      </trkpt>
      <trkpt lat="46.350753" lon="15.115478">
        <ele>457.00</ele>
        <time>2018-01-22T13:26:03Z</time>
      </trkpt>
      <trkpt lat="46.350739" lon="15.115479">
        <ele>459.55</ele>
        <time>2018-01-22T13:26:05Z</time>
      </trkpt>
      <trkpt lat="46.350729" lon="15.115475">
        <ele>461.00</ele>
        <time>2018-01-22T13:26:06Z</time>
      </trkpt>
      <trkpt lat="46.350713" lon="15.115467">
        <ele>461.00</ele>
        <time>2018-01-22T13:26:08Z</time>
      </trkpt>
      <trkpt lat="46.350696" lon="15.115464">
        <ele>462.27</ele>
        <time>2018-01-22T13:26:10Z</time>
      </trkpt>
      <trkpt lat="46.350682" lon="15.115474">
        <ele>463.00</ele>
        <time>2018-01-22T13:26:11Z</time>
      </trkpt>
      <trkpt lat="46.350662" lon="15.115484">
        <ele>463.00</ele>
        <time>2018-01-22T13:26:12Z</time>
      </trkpt>
      <trkpt lat="46.350646" lon="15.115497">
        <ele>463.00</ele>
        <time>2018-01-22T13:26:13Z</time>
      </trkpt>
      <trkpt lat="46.350635" lon="15.115506">
        <ele>463.00</ele>
        <time>2018-01-22T13:26:14Z</time>
      </trkpt>
      <trkpt lat="46.350620" lon="15.115510">
        <ele>463.00</ele>
        <time>2018-01-22T13:26:15Z</time>
      </trkpt>
      <trkpt lat="46.350600" lon="15.115515">
        <ele>463.00</ele>
        <time>2018-01-22T13:26:16Z</time>
      </trkpt>
      <trkpt lat="46.350587" lon="15.115517">
        <ele>463.00</ele>
        <time>2018-01-22T13:26:17Z</time>
      </trkpt>
      <trkpt lat="46.350572" lon="15.115520">
        <ele>463.00</ele>
        <time>2018-01-22T13:26:18Z</time>
      </trkpt>
      <trkpt lat="46.350561" lon="15.115523">
        <ele>463.00</ele>
        <time>2018-01-22T13:26:19Z</time>
      </trkpt>
      <trkpt lat="46.350551" lon="15.115522">
        <ele>463.00</ele>
        <time>2018-01-22T13:26:22Z</time>
      </trkpt>
      <trkpt lat="46.350541" lon="15.115544">
        <ele>463.00</ele>
        <time>2018-01-22T13:26:23Z</time>
      </trkpt>
      <trkpt lat="46.350533" lon="15.115560">
        <ele>463.00</ele>
        <time>2018-01-22T13:26:24Z</time>
      </trkpt>
      <trkpt lat="46.350512" lon="15.115585">
        <ele>466.00</ele>
        <time>2018-01-22T13:26:26Z</time>
      </trkpt>
      <trkpt lat="46.350501" lon="15.115597">
        <ele>466.00</ele>
        <time>2018-01-22T13:26:27Z</time>
      </trkpt>
      <trkpt lat="46.350485" lon="15.115602">
        <ele>466.00</ele>
        <time>2018-01-22T13:26:28Z</time>
      </trkpt>
      <trkpt lat="46.350492" lon="15.115585">
        <ele>467.91</ele>
        <time>2018-01-22T13:26:30Z</time>
      </trkpt>
      <trkpt lat="46.350501" lon="15.115570">
        <ele>469.00</ele>
        <time>2018-01-22T13:26:31Z</time>
      </trkpt>
      <trkpt lat="46.350502" lon="15.115564">
        <ele>468.00</ele>
        <time>2018-01-22T13:26:59Z</time>
      </trkpt>
      <trkpt lat="46.350494" lon="15.115585">
        <ele>468.00</ele>
        <time>2018-01-22T13:27:01Z</time>
      </trkpt>
      <trkpt lat="46.350487" lon="15.115597">
        <ele>468.00</ele>
        <time>2018-01-22T13:27:03Z</time>
      </trkpt>
      <trkpt lat="46.350474" lon="15.115601">
        <ele>468.64</ele>
        <time>2018-01-22T13:27:05Z</time>
      </trkpt>
      <trkpt lat="46.350462" lon="15.115601">
        <ele>469.00</ele>
        <time>2018-01-22T13:27:06Z</time>
      </trkpt>
      <trkpt lat="46.350450" lon="15.115608">
        <ele>469.00</ele>
        <time>2018-01-22T13:27:07Z</time>
      </trkpt>
      <trkpt lat="46.350437" lon="15.115614">
        <ele>469.00</ele>
        <time>2018-01-22T13:27:09Z</time>
      </trkpt>
      <trkpt lat="46.350416" lon="15.115625">
        <ele>469.00</ele>
        <time>2018-01-22T13:27:11Z</time>
      </trkpt>
      <trkpt lat="46.350406" lon="15.115632">
        <ele>469.00</ele>
        <time>2018-01-22T13:27:12Z</time>
      </trkpt>
      <trkpt lat="46.350405" lon="15.115648">
        <ele>469.00</ele>
        <time>2018-01-22T13:27:14Z</time>
      </trkpt>
      <trkpt lat="46.350397" lon="15.115656">
        <ele>470.27</ele>
        <time>2018-01-22T13:27:15Z</time>
      </trkpt>
      <trkpt lat="46.350387" lon="15.115666">
        <ele>471.00</ele>
        <time>2018-01-22T13:27:16Z</time>
      </trkpt>
      <trkpt lat="46.350372" lon="15.115680">
        <ele>471.00</ele>
        <time>2018-01-22T13:27:17Z</time>
      </trkpt>
      <trkpt lat="46.350361" lon="15.115691">
        <ele>471.00</ele>
        <time>2018-01-22T13:27:18Z</time>
      </trkpt>
      <trkpt lat="46.350348" lon="15.115707">
        <ele>471.00</ele>
        <time>2018-01-22T13:27:20Z</time>
      </trkpt>
      <trkpt lat="46.350333" lon="15.115716">
        <ele>471.00</ele>
        <time>2018-01-22T13:27:22Z</time>
      </trkpt>
      <trkpt lat="46.350322" lon="15.115725">
        <ele>471.00</ele>
        <time>2018-01-22T13:27:24Z</time>
      </trkpt>
      <trkpt lat="46.350312" lon="15.115722">
        <ele>473.00</ele>
        <time>2018-01-22T13:27:26Z</time>
      </trkpt>
      <trkpt lat="46.350291" lon="15.115731">
        <ele>473.00</ele>
        <time>2018-01-22T13:27:28Z</time>
      </trkpt>
      <trkpt lat="46.350279" lon="15.115736">
        <ele>473.00</ele>
        <time>2018-01-22T13:27:29Z</time>
      </trkpt>
      <trkpt lat="46.350271" lon="15.115743">
        <ele>473.00</ele>
        <time>2018-01-22T13:27:30Z</time>
      </trkpt>
      <trkpt lat="46.350262" lon="15.115746">
        <ele>473.00</ele>
        <time>2018-01-22T13:27:31Z</time>
      </trkpt>
      <trkpt lat="46.350251" lon="15.115750">
        <ele>473.00</ele>
        <time>2018-01-22T13:27:32Z</time>
      </trkpt>
      <trkpt lat="46.350234" lon="15.115756">
        <ele>473.00</ele>
        <time>2018-01-22T13:27:33Z</time>
      </trkpt>
      <trkpt lat="46.350217" lon="15.115757">
        <ele>473.00</ele>
        <time>2018-01-22T13:27:34Z</time>
      </trkpt>
      <trkpt lat="46.350195" lon="15.115756">
        <ele>474.27</ele>
        <time>2018-01-22T13:27:35Z</time>
      </trkpt>
      <trkpt lat="46.350186" lon="15.115747">
        <ele>475.00</ele>
        <time>2018-01-22T13:27:36Z</time>
      </trkpt>
      <trkpt lat="46.350172" lon="15.115748">
        <ele>475.00</ele>
        <time>2018-01-22T13:27:38Z</time>
      </trkpt>
      <trkpt lat="46.350156" lon="15.115758">
        <ele>475.00</ele>
        <time>2018-01-22T13:27:39Z</time>
      </trkpt>
      <trkpt lat="46.350143" lon="15.115768">
        <ele>475.00</ele>
        <time>2018-01-22T13:27:40Z</time>
      </trkpt>
      <trkpt lat="46.350131" lon="15.115775">
        <ele>475.00</ele>
        <time>2018-01-22T13:27:42Z</time>
      </trkpt>
      <trkpt lat="46.350121" lon="15.115786">
        <ele>475.00</ele>
        <time>2018-01-22T13:27:43Z</time>
      </trkpt>
      <trkpt lat="46.350110" lon="15.115797">
        <ele>475.00</ele>
        <time>2018-01-22T13:27:44Z</time>
      </trkpt>
      <trkpt lat="46.350102" lon="15.115806">
        <ele>477.55</ele>
        <time>2018-01-22T13:27:45Z</time>
      </trkpt>
      <trkpt lat="46.350091" lon="15.115826">
        <ele>479.00</ele>
        <time>2018-01-22T13:27:47Z</time>
      </trkpt>
      <trkpt lat="46.350083" lon="15.115839">
        <ele>479.00</ele>
        <time>2018-01-22T13:27:48Z</time>
      </trkpt>
      <trkpt lat="46.350076" lon="15.115851">
        <ele>479.00</ele>
        <time>2018-01-22T13:27:49Z</time>
      </trkpt>
      <trkpt lat="46.350078" lon="15.115865">
        <ele>480.00</ele>
        <time>2018-01-22T13:27:51Z</time>
      </trkpt>
      <trkpt lat="46.350059" lon="15.115881">
        <ele>480.00</ele>
        <time>2018-01-22T13:27:53Z</time>
      </trkpt>
      <trkpt lat="46.350044" lon="15.115891">
        <ele>480.00</ele>
        <time>2018-01-22T13:27:54Z</time>
      </trkpt>
      <trkpt lat="46.350034" lon="15.115899">
        <ele>481.27</ele>
        <time>2018-01-22T13:27:55Z</time>
      </trkpt>
      <trkpt lat="46.350026" lon="15.115915">
        <ele>482.00</ele>
        <time>2018-01-22T13:27:58Z</time>
      </trkpt>
      <trkpt lat="46.350023" lon="15.115921">
        <ele>482.00</ele>
        <time>2018-01-22T13:27:59Z</time>
      </trkpt>
      <trkpt lat="46.350017" lon="15.115946">
        <ele>483.00</ele>
        <time>2018-01-22T13:28:01Z</time>
      </trkpt>
      <trkpt lat="46.350003" lon="15.115966">
        <ele>483.00</ele>
        <time>2018-01-22T13:28:04Z</time>
      </trkpt>
      <trkpt lat="46.349987" lon="15.115976">
        <ele>484.26</ele>
        <time>2018-01-22T13:28:05Z</time>
      </trkpt>
      <trkpt lat="46.349974" lon="15.115982">
        <ele>485.00</ele>
        <time>2018-01-22T13:28:06Z</time>
      </trkpt>
      <trkpt lat="46.349974" lon="15.116003">
        <ele>485.00</ele>
        <time>2018-01-22T13:28:08Z</time>
      </trkpt>
      <trkpt lat="46.349968" lon="15.116014">
        <ele>485.00</ele>
        <time>2018-01-22T13:28:09Z</time>
      </trkpt>
      <trkpt lat="46.349956" lon="15.116023">
        <ele>486.27</ele>
        <time>2018-01-22T13:28:10Z</time>
      </trkpt>
      <trkpt lat="46.349942" lon="15.116038">
        <ele>487.00</ele>
        <time>2018-01-22T13:28:11Z</time>
      </trkpt>
      <trkpt lat="46.349932" lon="15.116050">
        <ele>487.00</ele>
        <time>2018-01-22T13:28:12Z</time>
      </trkpt>
      <trkpt lat="46.349901" lon="15.116065">
        <ele>487.64</ele>
        <time>2018-01-22T13:28:15Z</time>
      </trkpt>
      <trkpt lat="46.349884" lon="15.116069">
        <ele>488.00</ele>
        <time>2018-01-22T13:28:16Z</time>
      </trkpt>
      <trkpt lat="46.349873" lon="15.116067">
        <ele>488.00</ele>
        <time>2018-01-22T13:28:18Z</time>
      </trkpt>
      <trkpt lat="46.349863" lon="15.116073">
        <ele>488.00</ele>
        <time>2018-01-22T13:28:19Z</time>
      </trkpt>
      <trkpt lat="46.349851" lon="15.116087">
        <ele>489.00</ele>
        <time>2018-01-22T13:28:21Z</time>
      </trkpt>
      <trkpt lat="46.349838" lon="15.116097">
        <ele>489.00</ele>
        <time>2018-01-22T13:28:23Z</time>
      </trkpt>
      <trkpt lat="46.349836" lon="15.116115">
        <ele>489.64</ele>
        <time>2018-01-22T13:28:25Z</time>
      </trkpt>
      <trkpt lat="46.349817" lon="15.116134">
        <ele>490.00</ele>
        <time>2018-01-22T13:28:27Z</time>
      </trkpt>
      <trkpt lat="46.349811" lon="15.116157">
        <ele>490.00</ele>
        <time>2018-01-22T13:28:28Z</time>
      </trkpt>
      <trkpt lat="46.349811" lon="15.116172">
        <ele>490.00</ele>
        <time>2018-01-22T13:28:30Z</time>
      </trkpt>
      <trkpt lat="46.349797" lon="15.116194">
        <ele>490.00</ele>
        <time>2018-01-22T13:28:32Z</time>
      </trkpt>
      <trkpt lat="46.349788" lon="15.116213">
        <ele>493.00</ele>
        <time>2018-01-22T13:28:36Z</time>
      </trkpt>
      <trkpt lat="46.349780" lon="15.116220">
        <ele>493.00</ele>
        <time>2018-01-22T13:28:37Z</time>
      </trkpt>
      <trkpt lat="46.349774" lon="15.116235">
        <ele>493.00</ele>
        <time>2018-01-22T13:28:39Z</time>
      </trkpt>
      <trkpt lat="46.349769" lon="15.116248">
        <ele>494.27</ele>
        <time>2018-01-22T13:28:40Z</time>
      </trkpt>
      <trkpt lat="46.349765" lon="15.116260">
        <ele>495.00</ele>
        <time>2018-01-22T13:28:43Z</time>
      </trkpt>
      <trkpt lat="46.349751" lon="15.116271">
        <ele>496.27</ele>
        <time>2018-01-22T13:28:45Z</time>
      </trkpt>
      <trkpt lat="46.349743" lon="15.116283">
        <ele>497.00</ele>
        <time>2018-01-22T13:28:47Z</time>
      </trkpt>
      <trkpt lat="46.349732" lon="15.116298">
        <ele>497.00</ele>
        <time>2018-01-22T13:28:49Z</time>
      </trkpt>
      <trkpt lat="46.349727" lon="15.116313">
        <ele>498.00</ele>
        <time>2018-01-22T13:28:51Z</time>
      </trkpt>
      <trkpt lat="46.349721" lon="15.116327">
        <ele>498.00</ele>
        <time>2018-01-22T13:28:52Z</time>
      </trkpt>
      <trkpt lat="46.349708" lon="15.116336">
        <ele>498.00</ele>
        <time>2018-01-22T13:28:54Z</time>
      </trkpt>
      <trkpt lat="46.349696" lon="15.116339">
        <ele>499.27</ele>
        <time>2018-01-22T13:28:55Z</time>
      </trkpt>
      <trkpt lat="46.349683" lon="15.116344">
        <ele>500.00</ele>
        <time>2018-01-22T13:28:56Z</time>
      </trkpt>
      <trkpt lat="46.349662" lon="15.116368">
        <ele>500.63</ele>
        <time>2018-01-22T13:29:00Z</time>
      </trkpt>
      <trkpt lat="46.349650" lon="15.116382">
        <ele>501.00</ele>
        <time>2018-01-22T13:29:01Z</time>
      </trkpt>
      <trkpt lat="46.349640" lon="15.116394">
        <ele>501.00</ele>
        <time>2018-01-22T13:29:02Z</time>
      </trkpt>
      <trkpt lat="46.349630" lon="15.116407">
        <ele>501.00</ele>
        <time>2018-01-22T13:29:04Z</time>
      </trkpt>
      <trkpt lat="46.349617" lon="15.116411">
        <ele>502.27</ele>
        <time>2018-01-22T13:29:05Z</time>
      </trkpt>
      <trkpt lat="46.349608" lon="15.116415">
        <ele>503.00</ele>
        <time>2018-01-22T13:29:06Z</time>
      </trkpt>
      <trkpt lat="46.349600" lon="15.116422">
        <ele>503.00</ele>
        <time>2018-01-22T13:29:07Z</time>
      </trkpt>
      <trkpt lat="46.349583" lon="15.116430">
        <ele>503.00</ele>
        <time>2018-01-22T13:29:09Z</time>
      </trkpt>
      <trkpt lat="46.349563" lon="15.116430">
        <ele>506.00</ele>
        <time>2018-01-22T13:29:11Z</time>
      </trkpt>
      <trkpt lat="46.349553" lon="15.116429">
        <ele>506.00</ele>
        <time>2018-01-22T13:29:12Z</time>
      </trkpt>
      <trkpt lat="46.349533" lon="15.116436">
        <ele>506.00</ele>
        <time>2018-01-22T13:29:14Z</time>
      </trkpt>
      <trkpt lat="46.349523" lon="15.116444">
        <ele>506.00</ele>
        <time>2018-01-22T13:29:15Z</time>
      </trkpt>
      <trkpt lat="46.349511" lon="15.116448">
        <ele>506.00</ele>
        <time>2018-01-22T13:29:16Z</time>
      </trkpt>
      <trkpt lat="46.349504" lon="15.116458">
        <ele>506.00</ele>
        <time>2018-01-22T13:29:18Z</time>
      </trkpt>
      <trkpt lat="46.349497" lon="15.116470">
        <ele>506.64</ele>
        <time>2018-01-22T13:29:20Z</time>
      </trkpt>
      <trkpt lat="46.349487" lon="15.116478">
        <ele>507.00</ele>
        <time>2018-01-22T13:29:21Z</time>
      </trkpt>
      <trkpt lat="46.349471" lon="15.116478">
        <ele>507.00</ele>
        <time>2018-01-22T13:29:24Z</time>
      </trkpt>
      <trkpt lat="46.349464" lon="15.116488">
        <ele>508.27</ele>
        <time>2018-01-22T13:29:25Z</time>
      </trkpt>
      <trkpt lat="46.349448" lon="15.116508">
        <ele>509.00</ele>
        <time>2018-01-22T13:29:27Z</time>
      </trkpt>
      <trkpt lat="46.349437" lon="15.116505">
        <ele>509.00</ele>
        <time>2018-01-22T13:29:28Z</time>
      </trkpt>
      <trkpt lat="46.349427" lon="15.116504">
        <ele>509.00</ele>
        <time>2018-01-22T13:29:29Z</time>
      </trkpt>
      <trkpt lat="46.349420" lon="15.116521">
        <ele>511.00</ele>
        <time>2018-01-22T13:29:32Z</time>
      </trkpt>
      <trkpt lat="46.349412" lon="15.116527">
        <ele>511.00</ele>
        <time>2018-01-22T13:29:34Z</time>
      </trkpt>
      <trkpt lat="46.349413" lon="15.116541">
        <ele>512.00</ele>
        <time>2018-01-22T13:29:37Z</time>
      </trkpt>
      <trkpt lat="46.349401" lon="15.116546">
        <ele>512.00</ele>
        <time>2018-01-22T13:29:38Z</time>
      </trkpt>
      <trkpt lat="46.349392" lon="15.116550">
        <ele>512.00</ele>
        <time>2018-01-22T13:29:39Z</time>
      </trkpt>
      <trkpt lat="46.349383" lon="15.116555">
        <ele>513.00</ele>
        <time>2018-01-22T13:29:41Z</time>
      </trkpt>
      <trkpt lat="46.349374" lon="15.116560">
        <ele>513.00</ele>
        <time>2018-01-22T13:29:42Z</time>
      </trkpt>
      <trkpt lat="46.349361" lon="15.116565">
        <ele>513.00</ele>
        <time>2018-01-22T13:29:43Z</time>
      </trkpt>
      <trkpt lat="46.349347" lon="15.116577">
        <ele>514.91</ele>
        <time>2018-01-22T13:29:45Z</time>
      </trkpt>
      <trkpt lat="46.349340" lon="15.116588">
        <ele>516.00</ele>
        <time>2018-01-22T13:29:46Z</time>
      </trkpt>
      <trkpt lat="46.349333" lon="15.116599">
        <ele>516.00</ele>
        <time>2018-01-22T13:29:47Z</time>
      </trkpt>
      <trkpt lat="46.349318" lon="15.116625">
        <ele>516.00</ele>
        <time>2018-01-22T13:29:49Z</time>
      </trkpt>
      <trkpt lat="46.349298" lon="15.116663">
        <ele>518.00</ele>
        <time>2018-01-22T13:29:51Z</time>
      </trkpt>
      <trkpt lat="46.349291" lon="15.116677">
        <ele>518.00</ele>
        <time>2018-01-22T13:29:52Z</time>
      </trkpt>
      <trkpt lat="46.349285" lon="15.116688">
        <ele>518.00</ele>
        <time>2018-01-22T13:29:53Z</time>
      </trkpt>
      <trkpt lat="46.349278" lon="15.116699">
        <ele>518.00</ele>
        <time>2018-01-22T13:29:54Z</time>
      </trkpt>
      <trkpt lat="46.349269" lon="15.116705">
        <ele>518.64</ele>
        <time>2018-01-22T13:29:55Z</time>
      </trkpt>
      <trkpt lat="46.349252" lon="15.116712">
        <ele>519.00</ele>
        <time>2018-01-22T13:29:57Z</time>
      </trkpt>
      <trkpt lat="46.349244" lon="15.116705">
        <ele>519.00</ele>
        <time>2018-01-22T13:29:59Z</time>
      </trkpt>
      <trkpt lat="46.349235" lon="15.116720">
        <ele>519.00</ele>
        <time>2018-01-22T13:30:01Z</time>
      </trkpt>
      <trkpt lat="46.349219" lon="15.116737">
        <ele>519.00</ele>
        <time>2018-01-22T13:30:04Z</time>
      </trkpt>
      <trkpt lat="46.349205" lon="15.116757">
        <ele>522.00</ele>
        <time>2018-01-22T13:30:06Z</time>
      </trkpt>
      <trkpt lat="46.349199" lon="15.116767">
        <ele>522.00</ele>
        <time>2018-01-22T13:30:07Z</time>
      </trkpt>
      <trkpt lat="46.349197" lon="15.116782">
        <ele>522.00</ele>
        <time>2018-01-22T13:30:09Z</time>
      </trkpt>
      <trkpt lat="46.349193" lon="15.116798">
        <ele>523.00</ele>
        <time>2018-01-22T13:30:11Z</time>
      </trkpt>
      <trkpt lat="46.349184" lon="15.116807">
        <ele>523.00</ele>
        <time>2018-01-22T13:30:13Z</time>
      </trkpt>
      <trkpt lat="46.349173" lon="15.116818">
        <ele>523.00</ele>
        <time>2018-01-22T13:30:14Z</time>
      </trkpt>
      <trkpt lat="46.349161" lon="15.116824">
        <ele>525.00</ele>
        <time>2018-01-22T13:30:16Z</time>
      </trkpt>
      <trkpt lat="46.349160" lon="15.116841">
        <ele>525.00</ele>
        <time>2018-01-22T13:30:19Z</time>
      </trkpt>
      <trkpt lat="46.349151" lon="15.116864">
        <ele>525.00</ele>
        <time>2018-01-22T13:30:21Z</time>
      </trkpt>
      <trkpt lat="46.349146" lon="15.116881">
        <ele>525.00</ele>
        <time>2018-01-22T13:30:22Z</time>
      </trkpt>
      <trkpt lat="46.349140" lon="15.116897">
        <ele>525.00</ele>
        <time>2018-01-22T13:30:24Z</time>
      </trkpt>
      <trkpt lat="46.349125" lon="15.116902">
        <ele>527.00</ele>
        <time>2018-01-22T13:30:26Z</time>
      </trkpt>
      <trkpt lat="46.349113" lon="15.116914">
        <ele>527.00</ele>
        <time>2018-01-22T13:30:27Z</time>
      </trkpt>
      <trkpt lat="46.349105" lon="15.116942">
        <ele>527.00</ele>
        <time>2018-01-22T13:30:29Z</time>
      </trkpt>
      <trkpt lat="46.349095" lon="15.116955">
        <ele>527.00</ele>
        <time>2018-01-22T13:30:30Z</time>
      </trkpt>
      <trkpt lat="46.349083" lon="15.116966">
        <ele>527.00</ele>
        <time>2018-01-22T13:30:31Z</time>
      </trkpt>
      <trkpt lat="46.349070" lon="15.116978">
        <ele>527.00</ele>
        <time>2018-01-22T13:30:32Z</time>
      </trkpt>
      <trkpt lat="46.349057" lon="15.116995">
        <ele>527.00</ele>
        <time>2018-01-22T13:30:33Z</time>
      </trkpt>
      <trkpt lat="46.349039" lon="15.117012">
        <ele>527.00</ele>
        <time>2018-01-22T13:30:34Z</time>
      </trkpt>
      <trkpt lat="46.349029" lon="15.117020">
        <ele>528.27</ele>
        <time>2018-01-22T13:30:35Z</time>
      </trkpt>
      <trkpt lat="46.349020" lon="15.117037">
        <ele>529.00</ele>
        <time>2018-01-22T13:30:38Z</time>
      </trkpt>
      <trkpt lat="46.349004" lon="15.117054">
        <ele>529.00</ele>
        <time>2018-01-22T13:30:39Z</time>
      </trkpt>
      <trkpt lat="46.348989" lon="15.117069">
        <ele>529.00</ele>
        <time>2018-01-22T13:30:40Z</time>
      </trkpt>
      <trkpt lat="46.348983" lon="15.117086">
        <ele>529.00</ele>
        <time>2018-01-22T13:30:41Z</time>
      </trkpt>
      <trkpt lat="46.348984" lon="15.117100">
        <ele>529.00</ele>
        <time>2018-01-22T13:30:43Z</time>
      </trkpt>
      <trkpt lat="46.348977" lon="15.117109">
        <ele>529.00</ele>
        <time>2018-01-22T13:30:44Z</time>
      </trkpt>
      <trkpt lat="46.348962" lon="15.117122">
        <ele>531.00</ele>
        <time>2018-01-22T13:30:46Z</time>
      </trkpt>
      <trkpt lat="46.348962" lon="15.117137">
        <ele>531.00</ele>
        <time>2018-01-22T13:30:48Z</time>
      </trkpt>
      <trkpt lat="46.348947" lon="15.117157">
        <ele>531.00</ele>
        <time>2018-01-22T13:30:50Z</time>
      </trkpt>
      <trkpt lat="46.348936" lon="15.117165">
        <ele>531.00</ele>
        <time>2018-01-22T13:30:51Z</time>
      </trkpt>
      <trkpt lat="46.348933" lon="15.117179">
        <ele>531.00</ele>
        <time>2018-01-22T13:30:52Z</time>
      </trkpt>
      <trkpt lat="46.348923" lon="15.117192">
        <ele>531.00</ele>
        <time>2018-01-22T13:30:53Z</time>
      </trkpt>
      <trkpt lat="46.348916" lon="15.117203">
        <ele>531.00</ele>
        <time>2018-01-22T13:30:54Z</time>
      </trkpt>
      <trkpt lat="46.348903" lon="15.117214">
        <ele>531.64</ele>
        <time>2018-01-22T13:30:55Z</time>
      </trkpt>
      <trkpt lat="46.348894" lon="15.117221">
        <ele>532.00</ele>
        <time>2018-01-22T13:30:56Z</time>
      </trkpt>
      <trkpt lat="46.348886" lon="15.117238">
        <ele>532.00</ele>
        <time>2018-01-22T13:30:58Z</time>
      </trkpt>
      <trkpt lat="46.348880" lon="15.117250">
        <ele>532.00</ele>
        <time>2018-01-22T13:30:59Z</time>
      </trkpt>
      <trkpt lat="46.348872" lon="15.117258">
        <ele>532.00</ele>
        <time>2018-01-22T13:31:00Z</time>
      </trkpt>
      <trkpt lat="46.348867" lon="15.117275">
        <ele>534.00</ele>
        <time>2018-01-22T13:31:06Z</time>
      </trkpt>
      <trkpt lat="46.348858" lon="15.117289">
        <ele>534.00</ele>
        <time>2018-01-22T13:31:07Z</time>
      </trkpt>
      <trkpt lat="46.348853" lon="15.117302">
        <ele>534.00</ele>
        <time>2018-01-22T13:31:08Z</time>
      </trkpt>
      <trkpt lat="46.348838" lon="15.117322">
        <ele>534.00</ele>
        <time>2018-01-22T13:31:10Z</time>
      </trkpt>
      <trkpt lat="46.348834" lon="15.117334">
        <ele>534.00</ele>
        <time>2018-01-22T13:31:11Z</time>
      </trkpt>
      <trkpt lat="46.348822" lon="15.117338">
        <ele>534.00</ele>
        <time>2018-01-22T13:31:13Z</time>
      </trkpt>
      <trkpt lat="46.348811" lon="15.117359">
        <ele>535.91</ele>
        <time>2018-01-22T13:31:15Z</time>
      </trkpt>
      <trkpt lat="46.348800" lon="15.117374">
        <ele>537.00</ele>
        <time>2018-01-22T13:31:16Z</time>
      </trkpt>
      <trkpt lat="46.348792" lon="15.117386">
        <ele>537.00</ele>
        <time>2018-01-22T13:31:17Z</time>
      </trkpt>
      <trkpt lat="46.348790" lon="15.117404">
        <ele>537.00</ele>
        <time>2018-01-22T13:31:19Z</time>
      </trkpt>
      <trkpt lat="46.348782" lon="15.117415">
        <ele>537.00</ele>
        <time>2018-01-22T13:31:20Z</time>
      </trkpt>
      <trkpt lat="46.348768" lon="15.117428">
        <ele>537.00</ele>
        <time>2018-01-22T13:31:21Z</time>
      </trkpt>
      <trkpt lat="46.348757" lon="15.117443">
        <ele>537.00</ele>
        <time>2018-01-22T13:31:22Z</time>
      </trkpt>
      <trkpt lat="46.348752" lon="15.117460">
        <ele>537.00</ele>
        <time>2018-01-22T13:31:23Z</time>
      </trkpt>
      <trkpt lat="46.348738" lon="15.117472">
        <ele>537.00</ele>
        <time>2018-01-22T13:31:25Z</time>
      </trkpt>
      <trkpt lat="46.348724" lon="15.117490">
        <ele>537.00</ele>
        <time>2018-01-22T13:31:27Z</time>
      </trkpt>
      <trkpt lat="46.348712" lon="15.117506">
        <ele>537.00</ele>
        <time>2018-01-22T13:31:28Z</time>
      </trkpt>
      <trkpt lat="46.348698" lon="15.117521">
        <ele>537.00</ele>
        <time>2018-01-22T13:31:29Z</time>
      </trkpt>
      <trkpt lat="46.348692" lon="15.117539">
        <ele>537.00</ele>
        <time>2018-01-22T13:31:30Z</time>
      </trkpt>
      <trkpt lat="46.348675" lon="15.117552">
        <ele>537.00</ele>
        <time>2018-01-22T13:31:32Z</time>
      </trkpt>
      <trkpt lat="46.348662" lon="15.117565">
        <ele>537.00</ele>
        <time>2018-01-22T13:31:33Z</time>
      </trkpt>
      <trkpt lat="46.348650" lon="15.117587">
        <ele>537.00</ele>
        <time>2018-01-22T13:31:34Z</time>
      </trkpt>
      <trkpt lat="46.348640" lon="15.117599">
        <ele>538.91</ele>
        <time>2018-01-22T13:31:35Z</time>
      </trkpt>
      <trkpt lat="46.348630" lon="15.117606">
        <ele>540.00</ele>
        <time>2018-01-22T13:31:36Z</time>
      </trkpt>
      <trkpt lat="46.348620" lon="15.117617">
        <ele>540.00</ele>
        <time>2018-01-22T13:31:37Z</time>
      </trkpt>
      <trkpt lat="46.348608" lon="15.117633">
        <ele>540.00</ele>
        <time>2018-01-22T13:31:38Z</time>
      </trkpt>
      <trkpt lat="46.348592" lon="15.117645">
        <ele>540.00</ele>
        <time>2018-01-22T13:31:39Z</time>
      </trkpt>
      <trkpt lat="46.348578" lon="15.117657">
        <ele>540.00</ele>
        <time>2018-01-22T13:31:40Z</time>
      </trkpt>
      <trkpt lat="46.348566" lon="15.117669">
        <ele>540.00</ele>
        <time>2018-01-22T13:31:41Z</time>
      </trkpt>
      <trkpt lat="46.348560" lon="15.117683">
        <ele>540.00</ele>
        <time>2018-01-22T13:31:42Z</time>
      </trkpt>
      <trkpt lat="46.348560" lon="15.117697">
        <ele>540.00</ele>
        <time>2018-01-22T13:31:43Z</time>
      </trkpt>
      <trkpt lat="46.348566" lon="15.117725">
        <ele>541.27</ele>
        <time>2018-01-22T13:31:45Z</time>
      </trkpt>
      <trkpt lat="46.348566" lon="15.117747">
        <ele>542.00</ele>
        <time>2018-01-22T13:31:46Z</time>
      </trkpt>
      <trkpt lat="46.348558" lon="15.117771">
        <ele>542.00</ele>
        <time>2018-01-22T13:31:47Z</time>
      </trkpt>
      <trkpt lat="46.348550" lon="15.117805">
        <ele>542.00</ele>
        <time>2018-01-22T13:31:49Z</time>
      </trkpt>
      <trkpt lat="46.348552" lon="15.117824">
        <ele>542.00</ele>
        <time>2018-01-22T13:31:52Z</time>
      </trkpt>
      <trkpt lat="46.348556" lon="15.117838">
        <ele>542.00</ele>
        <time>2018-01-22T13:31:53Z</time>
      </trkpt>
      <trkpt lat="46.348560" lon="15.117865">
        <ele>542.00</ele>
        <time>2018-01-22T13:31:54Z</time>
      </trkpt>
      <trkpt lat="46.348554" lon="15.117895">
        <ele>542.64</ele>
        <time>2018-01-22T13:31:55Z</time>
      </trkpt>
      <trkpt lat="46.348550" lon="15.117927">
        <ele>543.00</ele>
        <time>2018-01-22T13:31:56Z</time>
      </trkpt>
      <trkpt lat="46.348536" lon="15.117958">
        <ele>543.00</ele>
        <time>2018-01-22T13:31:57Z</time>
      </trkpt>
      <trkpt lat="46.348526" lon="15.117982">
        <ele>543.00</ele>
        <time>2018-01-22T13:31:58Z</time>
      </trkpt>
      <trkpt lat="46.348517" lon="15.118008">
        <ele>543.00</ele>
        <time>2018-01-22T13:31:59Z</time>
      </trkpt>
      <trkpt lat="46.348515" lon="15.118032">
        <ele>543.00</ele>
        <time>2018-01-22T13:32:00Z</time>
      </trkpt>
      <trkpt lat="46.348527" lon="15.118050">
        <ele>543.00</ele>
        <time>2018-01-22T13:32:02Z</time>
      </trkpt>
      <trkpt lat="46.348536" lon="15.118059">
        <ele>543.00</ele>
        <time>2018-01-22T13:32:03Z</time>
      </trkpt>
      <trkpt lat="46.348541" lon="15.118074">
        <ele>543.00</ele>
        <time>2018-01-22T13:32:05Z</time>
      </trkpt>
      <trkpt lat="46.348549" lon="15.118093">
        <ele>543.00</ele>
        <time>2018-01-22T13:32:07Z</time>
      </trkpt>
      <trkpt lat="46.348552" lon="15.118118">
        <ele>543.00</ele>
        <time>2018-01-22T13:32:09Z</time>
      </trkpt>
      <trkpt lat="46.348556" lon="15.118133">
        <ele>543.00</ele>
        <time>2018-01-22T13:32:10Z</time>
      </trkpt>
      <trkpt lat="46.348562" lon="15.118144">
        <ele>543.00</ele>
        <time>2018-01-22T13:32:11Z</time>
      </trkpt>
      <trkpt lat="46.348561" lon="15.118159">
        <ele>543.00</ele>
        <time>2018-01-22T13:32:12Z</time>
      </trkpt>
      <trkpt lat="46.348568" lon="15.118174">
        <ele>543.00</ele>
        <time>2018-01-22T13:32:13Z</time>
      </trkpt>
      <trkpt lat="46.348571" lon="15.118189">
        <ele>543.00</ele>
        <time>2018-01-22T13:32:14Z</time>
      </trkpt>
      <trkpt lat="46.348571" lon="15.118214">
        <ele>542.00</ele>
        <time>2018-01-22T13:32:16Z</time>
      </trkpt>
      <trkpt lat="46.348569" lon="15.118228">
        <ele>542.00</ele>
        <time>2018-01-22T13:32:17Z</time>
      </trkpt>
      <trkpt lat="46.348560" lon="15.118248">
        <ele>542.00</ele>
        <time>2018-01-22T13:32:18Z</time>
      </trkpt>
      <trkpt lat="46.348558" lon="15.118273">
        <ele>542.00</ele>
        <time>2018-01-22T13:32:19Z</time>
      </trkpt>
      <trkpt lat="46.348558" lon="15.118314">
        <ele>542.00</ele>
        <time>2018-01-22T13:32:20Z</time>
      </trkpt>
      <trkpt lat="46.348563" lon="15.118352">
        <ele>542.00</ele>
        <time>2018-01-22T13:32:21Z</time>
      </trkpt>
      <trkpt lat="46.348571" lon="15.118388">
        <ele>542.00</ele>
        <time>2018-01-22T13:32:22Z</time>
      </trkpt>
      <trkpt lat="46.348587" lon="15.118421">
        <ele>542.00</ele>
        <time>2018-01-22T13:32:23Z</time>
      </trkpt>
      <trkpt lat="46.348592" lon="15.118443">
        <ele>542.00</ele>
        <time>2018-01-22T13:32:24Z</time>
      </trkpt>
      <trkpt lat="46.348597" lon="15.118480">
        <ele>541.00</ele>
        <time>2018-01-22T13:32:26Z</time>
      </trkpt>
      <trkpt lat="46.348592" lon="15.118496">
        <ele>541.00</ele>
        <time>2018-01-22T13:32:27Z</time>
      </trkpt>
      <trkpt lat="46.348588" lon="15.118515">
        <ele>541.00</ele>
        <time>2018-01-22T13:32:28Z</time>
      </trkpt>
      <trkpt lat="46.348585" lon="15.118534">
        <ele>541.00</ele>
        <time>2018-01-22T13:32:29Z</time>
      </trkpt>
      <trkpt lat="46.348582" lon="15.118557">
        <ele>541.00</ele>
        <time>2018-01-22T13:32:30Z</time>
      </trkpt>
      <trkpt lat="46.348576" lon="15.118579">
        <ele>541.00</ele>
        <time>2018-01-22T13:32:31Z</time>
      </trkpt>
      <trkpt lat="46.348572" lon="15.118593">
        <ele>541.00</ele>
        <time>2018-01-22T13:32:32Z</time>
      </trkpt>
      <trkpt lat="46.348564" lon="15.118610">
        <ele>541.00</ele>
        <time>2018-01-22T13:32:33Z</time>
      </trkpt>
      <trkpt lat="46.348559" lon="15.118637">
        <ele>542.27</ele>
        <time>2018-01-22T13:32:35Z</time>
      </trkpt>
      <trkpt lat="46.348553" lon="15.118666">
        <ele>543.00</ele>
        <time>2018-01-22T13:32:36Z</time>
      </trkpt>
      <trkpt lat="46.348554" lon="15.118695">
        <ele>543.00</ele>
        <time>2018-01-22T13:32:37Z</time>
      </trkpt>
      <trkpt lat="46.348548" lon="15.118717">
        <ele>543.00</ele>
        <time>2018-01-22T13:32:38Z</time>
      </trkpt>
      <trkpt lat="46.348541" lon="15.118732">
        <ele>543.00</ele>
        <time>2018-01-22T13:32:39Z</time>
      </trkpt>
      <trkpt lat="46.348536" lon="15.118746">
        <ele>543.00</ele>
        <time>2018-01-22T13:32:40Z</time>
      </trkpt>
      <trkpt lat="46.348534" lon="15.118761">
        <ele>543.00</ele>
        <time>2018-01-22T13:32:41Z</time>
      </trkpt>
      <trkpt lat="46.348532" lon="15.118783">
        <ele>543.00</ele>
        <time>2018-01-22T13:32:42Z</time>
      </trkpt>
      <trkpt lat="46.348529" lon="15.118807">
        <ele>543.00</ele>
        <time>2018-01-22T13:32:43Z</time>
      </trkpt>
      <trkpt lat="46.348524" lon="15.118825">
        <ele>543.00</ele>
        <time>2018-01-22T13:32:44Z</time>
      </trkpt>
      <trkpt lat="46.348521" lon="15.118848">
        <ele>544.00</ele>
        <time>2018-01-22T13:32:47Z</time>
      </trkpt>
      <trkpt lat="46.348520" lon="15.118871">
        <ele>544.00</ele>
        <time>2018-01-22T13:32:48Z</time>
      </trkpt>
      <trkpt lat="46.348515" lon="15.118883">
        <ele>544.00</ele>
        <time>2018-01-22T13:32:49Z</time>
      </trkpt>
      <trkpt lat="46.348518" lon="15.118902">
        <ele>544.00</ele>
        <time>2018-01-22T13:32:51Z</time>
      </trkpt>
      <trkpt lat="46.348526" lon="15.118919">
        <ele>544.00</ele>
        <time>2018-01-22T13:32:53Z</time>
      </trkpt>
      <trkpt lat="46.348526" lon="15.118937">
        <ele>546.55</ele>
        <time>2018-01-22T13:32:55Z</time>
      </trkpt>
      <trkpt lat="46.348533" lon="15.118947">
        <ele>548.00</ele>
        <time>2018-01-22T13:32:56Z</time>
      </trkpt>
      <trkpt lat="46.348535" lon="15.118972">
        <ele>548.00</ele>
        <time>2018-01-22T13:32:58Z</time>
      </trkpt>
      <trkpt lat="46.348532" lon="15.118990">
        <ele>548.00</ele>
        <time>2018-01-22T13:32:59Z</time>
      </trkpt>
      <trkpt lat="46.348525" lon="15.119013">
        <ele>549.27</ele>
        <time>2018-01-22T13:33:00Z</time>
      </trkpt>
      <trkpt lat="46.348515" lon="15.119030">
        <ele>550.00</ele>
        <time>2018-01-22T13:33:01Z</time>
      </trkpt>
      <trkpt lat="46.348509" lon="15.119040">
        <ele>550.00</ele>
        <time>2018-01-22T13:33:02Z</time>
      </trkpt>
      <trkpt lat="46.348500" lon="15.119048">
        <ele>550.00</ele>
        <time>2018-01-22T13:33:03Z</time>
      </trkpt>
      <trkpt lat="46.348496" lon="15.119061">
        <ele>550.64</ele>
        <time>2018-01-22T13:33:05Z</time>
      </trkpt>
      <trkpt lat="46.348497" lon="15.119074">
        <ele>551.00</ele>
        <time>2018-01-22T13:33:06Z</time>
      </trkpt>
      <trkpt lat="46.348492" lon="15.119088">
        <ele>551.00</ele>
        <time>2018-01-22T13:33:07Z</time>
      </trkpt>
      <trkpt lat="46.348484" lon="15.119118">
        <ele>551.00</ele>
        <time>2018-01-22T13:33:09Z</time>
      </trkpt>
      <trkpt lat="46.348482" lon="15.119138">
        <ele>551.00</ele>
        <time>2018-01-22T13:33:10Z</time>
      </trkpt>
      <trkpt lat="46.348483" lon="15.119169">
        <ele>551.00</ele>
        <time>2018-01-22T13:33:11Z</time>
      </trkpt>
      <trkpt lat="46.348482" lon="15.119200">
        <ele>551.00</ele>
        <time>2018-01-22T13:33:12Z</time>
      </trkpt>
      <trkpt lat="46.348482" lon="15.119226">
        <ele>551.00</ele>
        <time>2018-01-22T13:33:13Z</time>
      </trkpt>
      <trkpt lat="46.348486" lon="15.119251">
        <ele>551.00</ele>
        <time>2018-01-22T13:33:14Z</time>
      </trkpt>
      <trkpt lat="46.348490" lon="15.119302">
        <ele>549.00</ele>
        <time>2018-01-22T13:33:16Z</time>
      </trkpt>
      <trkpt lat="46.348494" lon="15.119314">
        <ele>549.00</ele>
        <time>2018-01-22T13:33:17Z</time>
      </trkpt>
      <trkpt lat="46.348499" lon="15.119328">
        <ele>549.00</ele>
        <time>2018-01-22T13:33:18Z</time>
      </trkpt>
      <trkpt lat="46.348495" lon="15.119346">
        <ele>549.00</ele>
        <time>2018-01-22T13:33:19Z</time>
      </trkpt>
      <trkpt lat="46.348487" lon="15.119362">
        <ele>549.00</ele>
        <time>2018-01-22T13:33:20Z</time>
      </trkpt>
      <trkpt lat="46.348484" lon="15.119378">
        <ele>549.00</ele>
        <time>2018-01-22T13:33:21Z</time>
      </trkpt>
      <trkpt lat="46.348483" lon="15.119393">
        <ele>549.00</ele>
        <time>2018-01-22T13:33:22Z</time>
      </trkpt>
      <trkpt lat="46.348483" lon="15.119414">
        <ele>549.00</ele>
        <time>2018-01-22T13:33:23Z</time>
      </trkpt>
      <trkpt lat="46.348487" lon="15.119436">
        <ele>549.00</ele>
        <time>2018-01-22T13:33:24Z</time>
      </trkpt>
      <trkpt lat="46.348484" lon="15.119461">
        <ele>547.73</ele>
        <time>2018-01-22T13:33:25Z</time>
      </trkpt>
      <trkpt lat="46.348482" lon="15.119490">
        <ele>547.00</ele>
        <time>2018-01-22T13:33:26Z</time>
      </trkpt>
      <trkpt lat="46.348479" lon="15.119519">
        <ele>547.00</ele>
        <time>2018-01-22T13:33:27Z</time>
      </trkpt>
      <trkpt lat="46.348479" lon="15.119539">
        <ele>547.00</ele>
        <time>2018-01-22T13:33:28Z</time>
      </trkpt>
      <trkpt lat="46.348478" lon="15.119557">
        <ele>547.00</ele>
        <time>2018-01-22T13:33:29Z</time>
      </trkpt>
      <trkpt lat="46.348482" lon="15.119578">
        <ele>547.00</ele>
        <time>2018-01-22T13:33:30Z</time>
      </trkpt>
      <trkpt lat="46.348488" lon="15.119596">
        <ele>547.00</ele>
        <time>2018-01-22T13:33:31Z</time>
      </trkpt>
      <trkpt lat="46.348490" lon="15.119610">
        <ele>547.00</ele>
        <time>2018-01-22T13:33:32Z</time>
      </trkpt>
      <trkpt lat="46.348498" lon="15.119622">
        <ele>547.00</ele>
        <time>2018-01-22T13:33:33Z</time>
      </trkpt>
      <trkpt lat="46.348499" lon="15.119635">
        <ele>547.00</ele>
        <time>2018-01-22T13:33:34Z</time>
      </trkpt>
      <trkpt lat="46.348495" lon="15.119647">
        <ele>546.36</ele>
        <time>2018-01-22T13:33:35Z</time>
      </trkpt>
      <trkpt lat="46.348494" lon="15.119666">
        <ele>546.00</ele>
        <time>2018-01-22T13:33:36Z</time>
      </trkpt>
      <trkpt lat="46.348493" lon="15.119687">
        <ele>546.00</ele>
        <time>2018-01-22T13:33:37Z</time>
      </trkpt>
      <trkpt lat="46.348486" lon="15.119714">
        <ele>546.00</ele>
        <time>2018-01-22T13:33:38Z</time>
      </trkpt>
      <trkpt lat="46.348468" lon="15.119737">
        <ele>546.00</ele>
        <time>2018-01-22T13:33:39Z</time>
      </trkpt>
      <trkpt lat="46.348462" lon="15.119758">
        <ele>546.00</ele>
        <time>2018-01-22T13:33:40Z</time>
      </trkpt>
      <trkpt lat="46.348453" lon="15.119782">
        <ele>546.00</ele>
        <time>2018-01-22T13:33:41Z</time>
      </trkpt>
      <trkpt lat="46.348451" lon="15.119803">
        <ele>546.00</ele>
        <time>2018-01-22T13:33:42Z</time>
      </trkpt>
      <trkpt lat="46.348456" lon="15.119821">
        <ele>546.00</ele>
        <time>2018-01-22T13:33:43Z</time>
      </trkpt>
      <trkpt lat="46.348458" lon="15.119842">
        <ele>546.00</ele>
        <time>2018-01-22T13:33:44Z</time>
      </trkpt>
      <trkpt lat="46.348457" lon="15.119867">
        <ele>547.27</ele>
        <time>2018-01-22T13:33:45Z</time>
      </trkpt>
      <trkpt lat="46.348462" lon="15.119900">
        <ele>548.00</ele>
        <time>2018-01-22T13:33:46Z</time>
      </trkpt>
      <trkpt lat="46.348462" lon="15.119923">
        <ele>548.00</ele>
        <time>2018-01-22T13:33:47Z</time>
      </trkpt>
      <trkpt lat="46.348463" lon="15.119942">
        <ele>548.00</ele>
        <time>2018-01-22T13:33:48Z</time>
      </trkpt>
      <trkpt lat="46.348469" lon="15.119961">
        <ele>548.00</ele>
        <time>2018-01-22T13:33:50Z</time>
      </trkpt>
      <trkpt lat="46.348476" lon="15.119972">
        <ele>548.00</ele>
        <time>2018-01-22T13:33:52Z</time>
      </trkpt>
      <trkpt lat="46.348485" lon="15.119986">
        <ele>548.00</ele>
        <time>2018-01-22T13:33:53Z</time>
      </trkpt>
      <trkpt lat="46.348489" lon="15.120010">
        <ele>548.00</ele>
        <time>2018-01-22T13:33:54Z</time>
      </trkpt>
      <trkpt lat="46.348495" lon="15.120036">
        <ele>549.27</ele>
        <time>2018-01-22T13:33:55Z</time>
      </trkpt>
      <trkpt lat="46.348503" lon="15.120059">
        <ele>550.00</ele>
        <time>2018-01-22T13:33:56Z</time>
      </trkpt>
      <trkpt lat="46.348504" lon="15.120072">
        <ele>550.00</ele>
        <time>2018-01-22T13:33:57Z</time>
      </trkpt>
      <trkpt lat="46.348509" lon="15.120089">
        <ele>550.00</ele>
        <time>2018-01-22T13:33:59Z</time>
      </trkpt>
      <trkpt lat="46.348509" lon="15.120105">
        <ele>550.00</ele>
        <time>2018-01-22T13:34:00Z</time>
      </trkpt>
      <trkpt lat="46.348509" lon="15.120126">
        <ele>550.00</ele>
        <time>2018-01-22T13:34:01Z</time>
      </trkpt>
      <trkpt lat="46.348526" lon="15.120172">
        <ele>550.00</ele>
        <time>2018-01-22T13:34:03Z</time>
      </trkpt>
      <trkpt lat="46.348532" lon="15.120183">
        <ele>550.00</ele>
        <time>2018-01-22T13:34:04Z</time>
      </trkpt>
      <trkpt lat="46.348538" lon="15.120202">
        <ele>552.00</ele>
        <time>2018-01-22T13:34:06Z</time>
      </trkpt>
      <trkpt lat="46.348534" lon="15.120221">
        <ele>552.00</ele>
        <time>2018-01-22T13:34:07Z</time>
      </trkpt>
      <trkpt lat="46.348526" lon="15.120245">
        <ele>552.00</ele>
        <time>2018-01-22T13:34:08Z</time>
      </trkpt>
      <trkpt lat="46.348528" lon="15.120277">
        <ele>552.00</ele>
        <time>2018-01-22T13:34:09Z</time>
      </trkpt>
      <trkpt lat="46.348535" lon="15.120308">
        <ele>552.00</ele>
        <time>2018-01-22T13:34:10Z</time>
      </trkpt>
      <trkpt lat="46.348541" lon="15.120328">
        <ele>552.00</ele>
        <time>2018-01-22T13:34:13Z</time>
      </trkpt>
      <trkpt lat="46.348541" lon="15.120345">
        <ele>552.00</ele>
        <time>2018-01-22T13:34:14Z</time>
      </trkpt>
      <trkpt lat="46.348541" lon="15.120371">
        <ele>553.27</ele>
        <time>2018-01-22T13:34:15Z</time>
      </trkpt>
      <trkpt lat="46.348538" lon="15.120395">
        <ele>554.00</ele>
        <time>2018-01-22T13:34:16Z</time>
      </trkpt>
      <trkpt lat="46.348536" lon="15.120419">
        <ele>554.00</ele>
        <time>2018-01-22T13:34:17Z</time>
      </trkpt>
      <trkpt lat="46.348537" lon="15.120444">
        <ele>554.00</ele>
        <time>2018-01-22T13:34:18Z</time>
      </trkpt>
      <trkpt lat="46.348536" lon="15.120467">
        <ele>554.00</ele>
        <time>2018-01-22T13:34:19Z</time>
      </trkpt>
      <trkpt lat="46.348536" lon="15.120485">
        <ele>554.00</ele>
        <time>2018-01-22T13:34:20Z</time>
      </trkpt>
      <trkpt lat="46.348538" lon="15.120500">
        <ele>554.00</ele>
        <time>2018-01-22T13:34:21Z</time>
      </trkpt>
      <trkpt lat="46.348535" lon="15.120523">
        <ele>554.00</ele>
        <time>2018-01-22T13:34:22Z</time>
      </trkpt>
      <trkpt lat="46.348538" lon="15.120544">
        <ele>554.00</ele>
        <time>2018-01-22T13:34:23Z</time>
      </trkpt>
      <trkpt lat="46.348540" lon="15.120562">
        <ele>554.00</ele>
        <time>2018-01-22T13:34:24Z</time>
      </trkpt>
      <trkpt lat="46.348537" lon="15.120577">
        <ele>554.00</ele>
        <time>2018-01-22T13:34:25Z</time>
      </trkpt>
      <trkpt lat="46.348541" lon="15.120592">
        <ele>554.00</ele>
        <time>2018-01-22T13:34:26Z</time>
      </trkpt>
      <trkpt lat="46.348541" lon="15.120611">
        <ele>554.00</ele>
        <time>2018-01-22T13:34:27Z</time>
      </trkpt>
      <trkpt lat="46.348543" lon="15.120637">
        <ele>554.00</ele>
        <time>2018-01-22T13:34:28Z</time>
      </trkpt>
      <trkpt lat="46.348545" lon="15.120662">
        <ele>554.00</ele>
        <time>2018-01-22T13:34:29Z</time>
      </trkpt>
      <trkpt lat="46.348549" lon="15.120681">
        <ele>554.00</ele>
        <time>2018-01-22T13:34:30Z</time>
      </trkpt>
      <trkpt lat="46.348554" lon="15.120703">
        <ele>554.00</ele>
        <time>2018-01-22T13:34:31Z</time>
      </trkpt>
      <trkpt lat="46.348549" lon="15.120731">
        <ele>554.00</ele>
        <time>2018-01-22T13:34:32Z</time>
      </trkpt>
      <trkpt lat="46.348551" lon="15.120760">
        <ele>554.00</ele>
        <time>2018-01-22T13:34:33Z</time>
      </trkpt>
      <trkpt lat="46.348553" lon="15.120787">
        <ele>554.00</ele>
        <time>2018-01-22T13:34:34Z</time>
      </trkpt>
      <trkpt lat="46.348556" lon="15.120808">
        <ele>553.36</ele>
        <time>2018-01-22T13:34:35Z</time>
      </trkpt>
      <trkpt lat="46.348560" lon="15.120832">
        <ele>553.00</ele>
        <time>2018-01-22T13:34:36Z</time>
      </trkpt>
      <trkpt lat="46.348563" lon="15.120861">
        <ele>553.00</ele>
        <time>2018-01-22T13:34:37Z</time>
      </trkpt>
      <trkpt lat="46.348565" lon="15.120885">
        <ele>553.00</ele>
        <time>2018-01-22T13:34:38Z</time>
      </trkpt>
      <trkpt lat="46.348569" lon="15.120903">
        <ele>553.00</ele>
        <time>2018-01-22T13:34:39Z</time>
      </trkpt>
      <trkpt lat="46.348583" lon="15.120930">
        <ele>553.00</ele>
        <time>2018-01-22T13:34:41Z</time>
      </trkpt>
      <trkpt lat="46.348591" lon="15.120940">
        <ele>553.00</ele>
        <time>2018-01-22T13:34:42Z</time>
      </trkpt>
      <trkpt lat="46.348597" lon="15.120970">
        <ele>553.00</ele>
        <time>2018-01-22T13:34:44Z</time>
      </trkpt>
      <trkpt lat="46.348595" lon="15.120994">
        <ele>552.36</ele>
        <time>2018-01-22T13:34:45Z</time>
      </trkpt>
      <trkpt lat="46.348596" lon="15.121014">
        <ele>552.00</ele>
        <time>2018-01-22T13:34:46Z</time>
      </trkpt>
      <trkpt lat="46.348595" lon="15.121029">
        <ele>552.00</ele>
        <time>2018-01-22T13:34:47Z</time>
      </trkpt>
      <trkpt lat="46.348600" lon="15.121045">
        <ele>552.00</ele>
        <time>2018-01-22T13:34:48Z</time>
      </trkpt>
      <trkpt lat="46.348604" lon="15.121063">
        <ele>552.00</ele>
        <time>2018-01-22T13:34:49Z</time>
      </trkpt>
      <trkpt lat="46.348604" lon="15.121090">
        <ele>552.00</ele>
        <time>2018-01-22T13:34:50Z</time>
      </trkpt>
      <trkpt lat="46.348604" lon="15.121119">
        <ele>552.00</ele>
        <time>2018-01-22T13:34:51Z</time>
      </trkpt>
      <trkpt lat="46.348613" lon="15.121143">
        <ele>552.00</ele>
        <time>2018-01-22T13:34:52Z</time>
      </trkpt>
      <trkpt lat="46.348619" lon="15.121170">
        <ele>552.00</ele>
        <time>2018-01-22T13:34:53Z</time>
      </trkpt>
      <trkpt lat="46.348631" lon="15.121189">
        <ele>552.00</ele>
        <time>2018-01-22T13:34:54Z</time>
      </trkpt>
      <trkpt lat="46.348639" lon="15.121215">
        <ele>551.36</ele>
        <time>2018-01-22T13:34:55Z</time>
      </trkpt>
      <trkpt lat="46.348639" lon="15.121250">
        <ele>551.00</ele>
        <time>2018-01-22T13:34:56Z</time>
      </trkpt>
      <trkpt lat="46.348656" lon="15.121315">
        <ele>551.00</ele>
        <time>2018-01-22T13:34:58Z</time>
      </trkpt>
      <trkpt lat="46.348664" lon="15.121337">
        <ele>551.00</ele>
        <time>2018-01-22T13:34:59Z</time>
      </trkpt>
      <trkpt lat="46.348663" lon="15.121358">
        <ele>551.00</ele>
        <time>2018-01-22T13:35:00Z</time>
      </trkpt>
      <trkpt lat="46.348664" lon="15.121377">
        <ele>551.00</ele>
        <time>2018-01-22T13:35:01Z</time>
      </trkpt>
      <trkpt lat="46.348670" lon="15.121389">
        <ele>551.00</ele>
        <time>2018-01-22T13:35:02Z</time>
      </trkpt>
      <trkpt lat="46.348684" lon="15.121409">
        <ele>551.00</ele>
        <time>2018-01-22T13:35:03Z</time>
      </trkpt>
      <trkpt lat="46.348687" lon="15.121430">
        <ele>551.00</ele>
        <time>2018-01-22T13:35:04Z</time>
      </trkpt>
      <trkpt lat="46.348696" lon="15.121452">
        <ele>549.09</ele>
        <time>2018-01-22T13:35:05Z</time>
      </trkpt>
      <trkpt lat="46.348700" lon="15.121472">
        <ele>548.00</ele>
        <time>2018-01-22T13:35:06Z</time>
      </trkpt>
      <trkpt lat="46.348700" lon="15.121494">
        <ele>548.00</ele>
        <time>2018-01-22T13:35:07Z</time>
      </trkpt>
      <trkpt lat="46.348705" lon="15.121518">
        <ele>548.00</ele>
        <time>2018-01-22T13:35:08Z</time>
      </trkpt>
      <trkpt lat="46.348713" lon="15.121546">
        <ele>548.00</ele>
        <time>2018-01-22T13:35:09Z</time>
      </trkpt>
      <trkpt lat="46.348719" lon="15.121568">
        <ele>546.73</ele>
        <time>2018-01-22T13:35:10Z</time>
      </trkpt>
      <trkpt lat="46.348723" lon="15.121584">
        <ele>546.00</ele>
        <time>2018-01-22T13:35:11Z</time>
      </trkpt>
      <trkpt lat="46.348723" lon="15.121601">
        <ele>546.00</ele>
        <time>2018-01-22T13:35:12Z</time>
      </trkpt>
      <trkpt lat="46.348724" lon="15.121623">
        <ele>546.00</ele>
        <time>2018-01-22T13:35:13Z</time>
      </trkpt>
      <trkpt lat="46.348732" lon="15.121645">
        <ele>546.00</ele>
        <time>2018-01-22T13:35:14Z</time>
      </trkpt>
      <trkpt lat="46.348735" lon="15.121662">
        <ele>545.36</ele>
        <time>2018-01-22T13:35:15Z</time>
      </trkpt>
      <trkpt lat="46.348743" lon="15.121684">
        <ele>545.00</ele>
        <time>2018-01-22T13:35:17Z</time>
      </trkpt>
      <trkpt lat="46.348737" lon="15.121696">
        <ele>545.00</ele>
        <time>2018-01-22T13:35:18Z</time>
      </trkpt>
      <trkpt lat="46.348730" lon="15.121714">
        <ele>545.00</ele>
        <time>2018-01-22T13:35:19Z</time>
      </trkpt>
      <trkpt lat="46.348722" lon="15.121742">
        <ele>544.36</ele>
        <time>2018-01-22T13:35:20Z</time>
      </trkpt>
      <trkpt lat="46.348716" lon="15.121771">
        <ele>544.00</ele>
        <time>2018-01-22T13:35:21Z</time>
      </trkpt>
      <trkpt lat="46.348708" lon="15.121798">
        <ele>544.00</ele>
        <time>2018-01-22T13:35:22Z</time>
      </trkpt>
      <trkpt lat="46.348704" lon="15.121820">
        <ele>544.00</ele>
        <time>2018-01-22T13:35:23Z</time>
      </trkpt>
      <trkpt lat="46.348698" lon="15.121840">
        <ele>544.00</ele>
        <time>2018-01-22T13:35:24Z</time>
      </trkpt>
      <trkpt lat="46.348691" lon="15.121864">
        <ele>544.00</ele>
        <time>2018-01-22T13:35:25Z</time>
      </trkpt>
      <trkpt lat="46.348685" lon="15.121894">
        <ele>544.00</ele>
        <time>2018-01-22T13:35:26Z</time>
      </trkpt>
      <trkpt lat="46.348682" lon="15.121921">
        <ele>544.00</ele>
        <time>2018-01-22T13:35:27Z</time>
      </trkpt>
      <trkpt lat="46.348682" lon="15.121945">
        <ele>544.00</ele>
        <time>2018-01-22T13:35:28Z</time>
      </trkpt>
      <trkpt lat="46.348690" lon="15.121972">
        <ele>544.00</ele>
        <time>2018-01-22T13:35:29Z</time>
      </trkpt>
      <trkpt lat="46.348697" lon="15.121996">
        <ele>544.00</ele>
        <time>2018-01-22T13:35:30Z</time>
      </trkpt>
      <trkpt lat="46.348699" lon="15.122022">
        <ele>544.00</ele>
        <time>2018-01-22T13:35:31Z</time>
      </trkpt>
      <trkpt lat="46.348708" lon="15.122050">
        <ele>544.00</ele>
        <time>2018-01-22T13:35:32Z</time>
      </trkpt>
      <trkpt lat="46.348705" lon="15.122077">
        <ele>544.00</ele>
        <time>2018-01-22T13:35:33Z</time>
      </trkpt>
      <trkpt lat="46.348723" lon="15.122128">
        <ele>544.00</ele>
        <time>2018-01-22T13:35:35Z</time>
      </trkpt>
      <trkpt lat="46.348733" lon="15.122151">
        <ele>544.00</ele>
        <time>2018-01-22T13:35:36Z</time>
      </trkpt>
      <trkpt lat="46.348723" lon="15.122170">
        <ele>544.00</ele>
        <time>2018-01-22T13:35:37Z</time>
      </trkpt>
      <trkpt lat="46.348716" lon="15.122198">
        <ele>544.00</ele>
        <time>2018-01-22T13:35:38Z</time>
      </trkpt>
      <trkpt lat="46.348715" lon="15.122222">
        <ele>544.00</ele>
        <time>2018-01-22T13:35:39Z</time>
      </trkpt>
      <trkpt lat="46.348715" lon="15.122246">
        <ele>544.00</ele>
        <time>2018-01-22T13:35:40Z</time>
      </trkpt>
      <trkpt lat="46.348709" lon="15.122279">
        <ele>544.00</ele>
        <time>2018-01-22T13:35:41Z</time>
      </trkpt>
      <trkpt lat="46.348698" lon="15.122312">
        <ele>544.00</ele>
        <time>2018-01-22T13:35:42Z</time>
      </trkpt>
      <trkpt lat="46.348688" lon="15.122351">
        <ele>544.00</ele>
        <time>2018-01-22T13:35:43Z</time>
      </trkpt>
      <trkpt lat="46.348687" lon="15.122365">
        <ele>544.00</ele>
        <time>2018-01-22T13:35:44Z</time>
      </trkpt>
      <trkpt lat="46.348689" lon="15.122379">
        <ele>545.27</ele>
        <time>2018-01-22T13:35:45Z</time>
      </trkpt>
      <trkpt lat="46.348698" lon="15.122393">
        <ele>546.00</ele>
        <time>2018-01-22T13:35:47Z</time>
      </trkpt>
      <trkpt lat="46.348699" lon="15.122416">
        <ele>546.00</ele>
        <time>2018-01-22T13:35:48Z</time>
      </trkpt>
      <trkpt lat="46.348699" lon="15.122435">
        <ele>546.00</ele>
        <time>2018-01-22T13:35:49Z</time>
      </trkpt>
      <trkpt lat="46.348698" lon="15.122449">
        <ele>546.00</ele>
        <time>2018-01-22T13:35:50Z</time>
      </trkpt>
      <trkpt lat="46.348697" lon="15.122465">
        <ele>546.00</ele>
        <time>2018-01-22T13:35:51Z</time>
      </trkpt>
      <trkpt lat="46.348691" lon="15.122486">
        <ele>546.00</ele>
        <time>2018-01-22T13:35:52Z</time>
      </trkpt>
      <trkpt lat="46.348683" lon="15.122503">
        <ele>546.00</ele>
        <time>2018-01-22T13:35:53Z</time>
      </trkpt>
      <trkpt lat="46.348676" lon="15.122521">
        <ele>546.00</ele>
        <time>2018-01-22T13:35:54Z</time>
      </trkpt>
      <trkpt lat="46.348672" lon="15.122541">
        <ele>549.18</ele>
        <time>2018-01-22T13:35:55Z</time>
      </trkpt>
      <trkpt lat="46.348675" lon="15.122561">
        <ele>551.00</ele>
        <time>2018-01-22T13:35:57Z</time>
      </trkpt>
      <trkpt lat="46.348671" lon="15.122578">
        <ele>551.00</ele>
        <time>2018-01-22T13:35:58Z</time>
      </trkpt>
      <trkpt lat="46.348665" lon="15.122600">
        <ele>551.00</ele>
        <time>2018-01-22T13:35:59Z</time>
      </trkpt>
      <trkpt lat="46.348657" lon="15.122622">
        <ele>552.27</ele>
        <time>2018-01-22T13:36:00Z</time>
      </trkpt>
      <trkpt lat="46.348653" lon="15.122635">
        <ele>553.00</ele>
        <time>2018-01-22T13:36:01Z</time>
      </trkpt>
      <trkpt lat="46.348646" lon="15.122645">
        <ele>553.00</ele>
        <time>2018-01-22T13:36:02Z</time>
      </trkpt>
      <trkpt lat="46.348627" lon="15.122654">
        <ele>553.00</ele>
        <time>2018-01-22T13:36:04Z</time>
      </trkpt>
      <trkpt lat="46.348612" lon="15.122666">
        <ele>554.27</ele>
        <time>2018-01-22T13:36:05Z</time>
      </trkpt>
      <trkpt lat="46.348605" lon="15.122677">
        <ele>555.00</ele>
        <time>2018-01-22T13:36:06Z</time>
      </trkpt>
      <trkpt lat="46.348601" lon="15.122694">
        <ele>555.00</ele>
        <time>2018-01-22T13:36:08Z</time>
      </trkpt>
      <trkpt lat="46.348602" lon="15.122724">
        <ele>556.27</ele>
        <time>2018-01-22T13:36:10Z</time>
      </trkpt>
      <trkpt lat="46.348599" lon="15.122744">
        <ele>557.00</ele>
        <time>2018-01-22T13:36:11Z</time>
      </trkpt>
      <trkpt lat="46.348595" lon="15.122764">
        <ele>557.00</ele>
        <time>2018-01-22T13:36:12Z</time>
      </trkpt>
      <trkpt lat="46.348588" lon="15.122781">
        <ele>557.00</ele>
        <time>2018-01-22T13:36:13Z</time>
      </trkpt>
      <trkpt lat="46.348581" lon="15.122810">
        <ele>557.64</ele>
        <time>2018-01-22T13:36:15Z</time>
      </trkpt>
      <trkpt lat="46.348576" lon="15.122823">
        <ele>558.00</ele>
        <time>2018-01-22T13:36:16Z</time>
      </trkpt>
      <trkpt lat="46.348570" lon="15.122840">
        <ele>558.00</ele>
        <time>2018-01-22T13:36:18Z</time>
      </trkpt>
      <trkpt lat="46.348575" lon="15.122858">
        <ele>558.64</ele>
        <time>2018-01-22T13:36:20Z</time>
      </trkpt>
      <trkpt lat="46.348573" lon="15.122877">
        <ele>559.00</ele>
        <time>2018-01-22T13:36:22Z</time>
      </trkpt>
      <trkpt lat="46.348569" lon="15.122892">
        <ele>559.00</ele>
        <time>2018-01-22T13:36:23Z</time>
      </trkpt>
      <trkpt lat="46.348567" lon="15.122906">
        <ele>559.00</ele>
        <time>2018-01-22T13:36:24Z</time>
      </trkpt>
      <trkpt lat="46.348568" lon="15.122920">
        <ele>561.00</ele>
        <time>2018-01-22T13:36:26Z</time>
      </trkpt>
      <trkpt lat="46.348564" lon="15.122933">
        <ele>561.00</ele>
        <time>2018-01-22T13:36:28Z</time>
      </trkpt>
      <trkpt lat="46.348565" lon="15.122952">
        <ele>561.00</ele>
        <time>2018-01-22T13:36:30Z</time>
      </trkpt>
      <trkpt lat="46.348566" lon="15.122967">
        <ele>561.00</ele>
        <time>2018-01-22T13:36:32Z</time>
      </trkpt>
      <trkpt lat="46.348571" lon="15.122979">
        <ele>561.00</ele>
        <time>2018-01-22T13:36:33Z</time>
      </trkpt>
      <trkpt lat="46.348565" lon="15.123003">
        <ele>562.27</ele>
        <time>2018-01-22T13:36:35Z</time>
      </trkpt>
      <trkpt lat="46.348559" lon="15.123020">
        <ele>563.00</ele>
        <time>2018-01-22T13:36:36Z</time>
      </trkpt>
      <trkpt lat="46.348556" lon="15.123038">
        <ele>563.00</ele>
        <time>2018-01-22T13:36:37Z</time>
      </trkpt>
      <trkpt lat="46.348553" lon="15.123054">
        <ele>563.00</ele>
        <time>2018-01-22T13:36:38Z</time>
      </trkpt>
      <trkpt lat="46.348555" lon="15.123068">
        <ele>563.00</ele>
        <time>2018-01-22T13:36:39Z</time>
      </trkpt>
      <trkpt lat="46.348557" lon="15.123084">
        <ele>563.00</ele>
        <time>2018-01-22T13:36:41Z</time>
      </trkpt>
      <trkpt lat="46.348556" lon="15.123100">
        <ele>563.00</ele>
        <time>2018-01-22T13:36:42Z</time>
      </trkpt>
      <trkpt lat="46.348562" lon="15.123121">
        <ele>563.00</ele>
        <time>2018-01-22T13:36:43Z</time>
      </trkpt>
      <trkpt lat="46.348567" lon="15.123140">
        <ele>563.00</ele>
        <time>2018-01-22T13:36:44Z</time>
      </trkpt>
      <trkpt lat="46.348571" lon="15.123164">
        <ele>563.64</ele>
        <time>2018-01-22T13:36:45Z</time>
      </trkpt>
      <trkpt lat="46.348576" lon="15.123189">
        <ele>564.00</ele>
        <time>2018-01-22T13:36:46Z</time>
      </trkpt>
      <trkpt lat="46.348586" lon="15.123205">
        <ele>564.00</ele>
        <time>2018-01-22T13:36:47Z</time>
      </trkpt>
      <trkpt lat="46.348586" lon="15.123229">
        <ele>564.00</ele>
        <time>2018-01-22T13:36:49Z</time>
      </trkpt>
      <trkpt lat="46.348590" lon="15.123243">
        <ele>564.00</ele>
        <time>2018-01-22T13:36:50Z</time>
      </trkpt>
      <trkpt lat="46.348589" lon="15.123260">
        <ele>564.00</ele>
        <time>2018-01-22T13:36:51Z</time>
      </trkpt>
      <trkpt lat="46.348594" lon="15.123275">
        <ele>564.00</ele>
        <time>2018-01-22T13:36:52Z</time>
      </trkpt>
      <trkpt lat="46.348599" lon="15.123288">
        <ele>564.00</ele>
        <time>2018-01-22T13:36:53Z</time>
      </trkpt>
      <trkpt lat="46.348595" lon="15.123306">
        <ele>564.00</ele>
        <time>2018-01-22T13:36:54Z</time>
      </trkpt>
      <trkpt lat="46.348592" lon="15.123328">
        <ele>564.00</ele>
        <time>2018-01-22T13:36:55Z</time>
      </trkpt>
      <trkpt lat="46.348585" lon="15.123349">
        <ele>564.00</ele>
        <time>2018-01-22T13:36:56Z</time>
      </trkpt>
      <trkpt lat="46.348582" lon="15.123368">
        <ele>564.00</ele>
        <time>2018-01-22T13:36:57Z</time>
      </trkpt>
      <trkpt lat="46.348581" lon="15.123389">
        <ele>564.00</ele>
        <time>2018-01-22T13:36:58Z</time>
      </trkpt>
      <trkpt lat="46.348579" lon="15.123443">
        <ele>564.00</ele>
        <time>2018-01-22T13:37:00Z</time>
      </trkpt>
      <trkpt lat="46.348581" lon="15.123476">
        <ele>564.00</ele>
        <time>2018-01-22T13:37:01Z</time>
      </trkpt>
      <trkpt lat="46.348585" lon="15.123509">
        <ele>564.00</ele>
        <time>2018-01-22T13:37:02Z</time>
      </trkpt>
      <trkpt lat="46.348595" lon="15.123539">
        <ele>564.00</ele>
        <time>2018-01-22T13:37:03Z</time>
      </trkpt>
      <trkpt lat="46.348595" lon="15.123567">
        <ele>564.00</ele>
        <time>2018-01-22T13:37:04Z</time>
      </trkpt>
      <trkpt lat="46.348601" lon="15.123591">
        <ele>563.36</ele>
        <time>2018-01-22T13:37:05Z</time>
      </trkpt>
      <trkpt lat="46.348604" lon="15.123611">
        <ele>563.00</ele>
        <time>2018-01-22T13:37:06Z</time>
      </trkpt>
      <trkpt lat="46.348606" lon="15.123633">
        <ele>563.00</ele>
        <time>2018-01-22T13:37:07Z</time>
      </trkpt>
      <trkpt lat="46.348610" lon="15.123652">
        <ele>563.00</ele>
        <time>2018-01-22T13:37:08Z</time>
      </trkpt>
      <trkpt lat="46.348615" lon="15.123663">
        <ele>563.00</ele>
        <time>2018-01-22T13:37:10Z</time>
      </trkpt>
      <trkpt lat="46.348614" lon="15.123685">
        <ele>563.00</ele>
        <time>2018-01-22T13:37:12Z</time>
      </trkpt>
      <trkpt lat="46.348609" lon="15.123705">
        <ele>563.00</ele>
        <time>2018-01-22T13:37:13Z</time>
      </trkpt>
      <trkpt lat="46.348605" lon="15.123733">
        <ele>563.00</ele>
        <time>2018-01-22T13:37:14Z</time>
      </trkpt>
      <trkpt lat="46.348604" lon="15.123759">
        <ele>563.64</ele>
        <time>2018-01-22T13:37:15Z</time>
      </trkpt>
      <trkpt lat="46.348604" lon="15.123782">
        <ele>564.00</ele>
        <time>2018-01-22T13:37:16Z</time>
      </trkpt>
      <trkpt lat="46.348603" lon="15.123808">
        <ele>564.00</ele>
        <time>2018-01-22T13:37:17Z</time>
      </trkpt>
      <trkpt lat="46.348609" lon="15.123826">
        <ele>564.00</ele>
        <time>2018-01-22T13:37:18Z</time>
      </trkpt>
      <trkpt lat="46.348610" lon="15.123841">
        <ele>564.00</ele>
        <time>2018-01-22T13:37:19Z</time>
      </trkpt>
      <trkpt lat="46.348617" lon="15.123874">
        <ele>564.00</ele>
        <time>2018-01-22T13:37:21Z</time>
      </trkpt>
      <trkpt lat="46.348609" lon="15.123893">
        <ele>564.00</ele>
        <time>2018-01-22T13:37:22Z</time>
      </trkpt>
      <trkpt lat="46.348603" lon="15.123913">
        <ele>564.00</ele>
        <time>2018-01-22T13:37:23Z</time>
      </trkpt>
      <trkpt lat="46.348601" lon="15.123929">
        <ele>564.00</ele>
        <time>2018-01-22T13:37:24Z</time>
      </trkpt>
      <trkpt lat="46.348606" lon="15.123944">
        <ele>566.00</ele>
        <time>2018-01-22T13:37:26Z</time>
      </trkpt>
      <trkpt lat="46.348604" lon="15.123963">
        <ele>566.00</ele>
        <time>2018-01-22T13:37:27Z</time>
      </trkpt>
      <trkpt lat="46.348602" lon="15.123983">
        <ele>566.00</ele>
        <time>2018-01-22T13:37:28Z</time>
      </trkpt>
      <trkpt lat="46.348604" lon="15.123998">
        <ele>566.00</ele>
        <time>2018-01-22T13:37:29Z</time>
      </trkpt>
      <trkpt lat="46.348598" lon="15.124017">
        <ele>566.00</ele>
        <time>2018-01-22T13:37:31Z</time>
      </trkpt>
      <trkpt lat="46.348596" lon="15.124034">
        <ele>566.00</ele>
        <time>2018-01-22T13:37:32Z</time>
      </trkpt>
      <trkpt lat="46.348592" lon="15.124049">
        <ele>566.00</ele>
        <time>2018-01-22T13:37:33Z</time>
      </trkpt>
      <trkpt lat="46.348583" lon="15.124066">
        <ele>566.00</ele>
        <time>2018-01-22T13:37:34Z</time>
      </trkpt>
      <trkpt lat="46.348570" lon="15.124087">
        <ele>567.27</ele>
        <time>2018-01-22T13:37:35Z</time>
      </trkpt>
      <trkpt lat="46.348563" lon="15.124112">
        <ele>568.00</ele>
        <time>2018-01-22T13:37:37Z</time>
      </trkpt>
      <trkpt lat="46.348562" lon="15.124128">
        <ele>568.00</ele>
        <time>2018-01-22T13:37:38Z</time>
      </trkpt>
      <trkpt lat="46.348565" lon="15.124147">
        <ele>568.00</ele>
        <time>2018-01-22T13:37:39Z</time>
      </trkpt>
      <trkpt lat="46.348567" lon="15.124162">
        <ele>568.00</ele>
        <time>2018-01-22T13:37:41Z</time>
      </trkpt>
      <trkpt lat="46.348566" lon="15.124176">
        <ele>568.00</ele>
        <time>2018-01-22T13:37:42Z</time>
      </trkpt>
      <trkpt lat="46.348567" lon="15.124190">
        <ele>568.00</ele>
        <time>2018-01-22T13:37:43Z</time>
      </trkpt>
      <trkpt lat="46.348566" lon="15.124207">
        <ele>568.00</ele>
        <time>2018-01-22T13:37:44Z</time>
      </trkpt>
      <trkpt lat="46.348558" lon="15.124226">
        <ele>569.27</ele>
        <time>2018-01-22T13:37:45Z</time>
      </trkpt>
      <trkpt lat="46.348558" lon="15.124245">
        <ele>570.00</ele>
        <time>2018-01-22T13:37:46Z</time>
      </trkpt>
      <trkpt lat="46.348549" lon="15.124259">
        <ele>570.00</ele>
        <time>2018-01-22T13:37:48Z</time>
      </trkpt>
      <trkpt lat="46.348545" lon="15.124272">
        <ele>570.00</ele>
        <time>2018-01-22T13:37:49Z</time>
      </trkpt>
      <trkpt lat="46.348543" lon="15.124290">
        <ele>570.00</ele>
        <time>2018-01-22T13:37:50Z</time>
      </trkpt>
      <trkpt lat="46.348549" lon="15.124313">
        <ele>570.00</ele>
        <time>2018-01-22T13:37:51Z</time>
      </trkpt>
      <trkpt lat="46.348554" lon="15.124333">
        <ele>570.00</ele>
        <time>2018-01-22T13:37:52Z</time>
      </trkpt>
      <trkpt lat="46.348557" lon="15.124353">
        <ele>570.00</ele>
        <time>2018-01-22T13:37:53Z</time>
      </trkpt>
      <trkpt lat="46.348552" lon="15.124365">
        <ele>570.00</ele>
        <time>2018-01-22T13:37:54Z</time>
      </trkpt>
      <trkpt lat="46.348539" lon="15.124378">
        <ele>571.91</ele>
        <time>2018-01-22T13:37:55Z</time>
      </trkpt>
      <trkpt lat="46.348528" lon="15.124387">
        <ele>573.00</ele>
        <time>2018-01-22T13:37:56Z</time>
      </trkpt>
      <trkpt lat="46.348518" lon="15.124397">
        <ele>573.00</ele>
        <time>2018-01-22T13:37:57Z</time>
      </trkpt>
      <trkpt lat="46.348500" lon="15.124403">
        <ele>573.00</ele>
        <time>2018-01-22T13:37:58Z</time>
      </trkpt>
      <trkpt lat="46.348486" lon="15.124416">
        <ele>573.00</ele>
        <time>2018-01-22T13:37:59Z</time>
      </trkpt>
      <trkpt lat="46.348472" lon="15.124424">
        <ele>573.63</ele>
        <time>2018-01-22T13:38:00Z</time>
      </trkpt>
      <trkpt lat="46.348465" lon="15.124432">
        <ele>574.00</ele>
        <time>2018-01-22T13:38:01Z</time>
      </trkpt>
      <trkpt lat="46.348457" lon="15.124448">
        <ele>574.00</ele>
        <time>2018-01-22T13:38:02Z</time>
      </trkpt>
      <trkpt lat="46.348446" lon="15.124460">
        <ele>574.00</ele>
        <time>2018-01-22T13:38:03Z</time>
      </trkpt>
      <trkpt lat="46.348445" lon="15.124478">
        <ele>574.00</ele>
        <time>2018-01-22T13:38:04Z</time>
      </trkpt>
      <trkpt lat="46.348446" lon="15.124493">
        <ele>576.00</ele>
        <time>2018-01-22T13:38:06Z</time>
      </trkpt>
      <trkpt lat="46.348443" lon="15.124509">
        <ele>576.00</ele>
        <time>2018-01-22T13:38:08Z</time>
      </trkpt>
      <trkpt lat="46.348440" lon="15.124529">
        <ele>576.00</ele>
        <time>2018-01-22T13:38:09Z</time>
      </trkpt>
      <trkpt lat="46.348444" lon="15.124551">
        <ele>577.27</ele>
        <time>2018-01-22T13:38:10Z</time>
      </trkpt>
      <trkpt lat="46.348446" lon="15.124565">
        <ele>578.00</ele>
        <time>2018-01-22T13:38:11Z</time>
      </trkpt>
      <trkpt lat="46.348444" lon="15.124578">
        <ele>578.00</ele>
        <time>2018-01-22T13:38:13Z</time>
      </trkpt>
      <trkpt lat="46.348441" lon="15.124591">
        <ele>578.00</ele>
        <time>2018-01-22T13:38:14Z</time>
      </trkpt>
      <trkpt lat="46.348439" lon="15.124612">
        <ele>578.64</ele>
        <time>2018-01-22T13:38:15Z</time>
      </trkpt>
      <trkpt lat="46.348442" lon="15.124626">
        <ele>579.00</ele>
        <time>2018-01-22T13:38:16Z</time>
      </trkpt>
      <trkpt lat="46.348438" lon="15.124643">
        <ele>579.00</ele>
        <time>2018-01-22T13:38:18Z</time>
      </trkpt>
      <trkpt lat="46.348421" lon="15.124668">
        <ele>579.00</ele>
        <time>2018-01-22T13:38:20Z</time>
      </trkpt>
      <trkpt lat="46.348413" lon="15.124679">
        <ele>579.00</ele>
        <time>2018-01-22T13:38:21Z</time>
      </trkpt>
      <trkpt lat="46.348412" lon="15.124693">
        <ele>579.00</ele>
        <time>2018-01-22T13:38:23Z</time>
      </trkpt>
      <trkpt lat="46.348421" lon="15.124712">
        <ele>579.64</ele>
        <time>2018-01-22T13:38:25Z</time>
      </trkpt>
      <trkpt lat="46.348427" lon="15.124725">
        <ele>580.00</ele>
        <time>2018-01-22T13:38:27Z</time>
      </trkpt>
      <trkpt lat="46.348419" lon="15.124752">
        <ele>580.00</ele>
        <time>2018-01-22T13:38:29Z</time>
      </trkpt>
      <trkpt lat="46.348413" lon="15.124775">
        <ele>580.00</ele>
        <time>2018-01-22T13:38:30Z</time>
      </trkpt>
      <trkpt lat="46.348408" lon="15.124794">
        <ele>580.00</ele>
        <time>2018-01-22T13:38:31Z</time>
      </trkpt>
      <trkpt lat="46.348407" lon="15.124808">
        <ele>580.00</ele>
        <time>2018-01-22T13:38:32Z</time>
      </trkpt>
      <trkpt lat="46.348407" lon="15.124822">
        <ele>580.00</ele>
        <time>2018-01-22T13:38:33Z</time>
      </trkpt>
      <trkpt lat="46.348408" lon="15.124843">
        <ele>580.00</ele>
        <time>2018-01-22T13:38:34Z</time>
      </trkpt>
      <trkpt lat="46.348408" lon="15.124857">
        <ele>581.27</ele>
        <time>2018-01-22T13:38:35Z</time>
      </trkpt>
      <trkpt lat="46.348422" lon="15.124872">
        <ele>582.00</ele>
        <time>2018-01-22T13:38:37Z</time>
      </trkpt>
      <trkpt lat="46.348431" lon="15.124890">
        <ele>582.00</ele>
        <time>2018-01-22T13:38:39Z</time>
      </trkpt>
      <trkpt lat="46.348434" lon="15.124902">
        <ele>582.00</ele>
        <time>2018-01-22T13:38:40Z</time>
      </trkpt>
      <trkpt lat="46.348440" lon="15.124917">
        <ele>582.00</ele>
        <time>2018-01-22T13:38:42Z</time>
      </trkpt>
      <trkpt lat="46.348430" lon="15.124914">
        <ele>582.00</ele>
        <time>2018-01-22T13:38:44Z</time>
      </trkpt>
      <trkpt lat="46.348440" lon="15.124911">
        <ele>585.00</ele>
        <time>2018-01-22T13:38:46Z</time>
      </trkpt>
      <trkpt lat="46.348436" lon="15.124931">
        <ele>586.00</ele>
        <time>2018-01-22T13:38:58Z</time>
      </trkpt>
      <trkpt lat="46.348431" lon="15.124945">
        <ele>586.00</ele>
        <time>2018-01-22T13:38:59Z</time>
      </trkpt>
      <trkpt lat="46.348432" lon="15.124961">
        <ele>586.00</ele>
        <time>2018-01-22T13:39:00Z</time>
      </trkpt>
      <trkpt lat="46.348425" lon="15.124974">
        <ele>586.00</ele>
        <time>2018-01-22T13:39:02Z</time>
      </trkpt>
      <trkpt lat="46.348418" lon="15.124985">
        <ele>586.00</ele>
        <time>2018-01-22T13:39:04Z</time>
      </trkpt>
      <trkpt lat="46.348411" lon="15.124994">
        <ele>586.00</ele>
        <time>2018-01-22T13:39:05Z</time>
      </trkpt>
      <trkpt lat="46.348403" lon="15.125014">
        <ele>586.00</ele>
        <time>2018-01-22T13:39:07Z</time>
      </trkpt>
      <trkpt lat="46.348399" lon="15.125030">
        <ele>586.00</ele>
        <time>2018-01-22T13:39:08Z</time>
      </trkpt>
      <trkpt lat="46.348400" lon="15.125044">
        <ele>586.00</ele>
        <time>2018-01-22T13:39:09Z</time>
      </trkpt>
      <trkpt lat="46.348396" lon="15.125061">
        <ele>586.00</ele>
        <time>2018-01-22T13:39:12Z</time>
      </trkpt>
      <trkpt lat="46.348391" lon="15.125072">
        <ele>586.00</ele>
        <time>2018-01-22T13:39:13Z</time>
      </trkpt>
      <trkpt lat="46.348383" lon="15.125085">
        <ele>586.00</ele>
        <time>2018-01-22T13:39:14Z</time>
      </trkpt>
      <trkpt lat="46.348366" lon="15.125129">
        <ele>586.00</ele>
        <time>2018-01-22T13:39:16Z</time>
      </trkpt>
      <trkpt lat="46.348363" lon="15.125158">
        <ele>586.00</ele>
        <time>2018-01-22T13:39:17Z</time>
      </trkpt>
      <trkpt lat="46.348357" lon="15.125186">
        <ele>586.00</ele>
        <time>2018-01-22T13:39:18Z</time>
      </trkpt>
      <trkpt lat="46.348346" lon="15.125218">
        <ele>586.00</ele>
        <time>2018-01-22T13:39:19Z</time>
      </trkpt>
      <trkpt lat="46.348331" lon="15.125246">
        <ele>586.00</ele>
        <time>2018-01-22T13:39:20Z</time>
      </trkpt>
      <trkpt lat="46.348320" lon="15.125271">
        <ele>586.00</ele>
        <time>2018-01-22T13:39:21Z</time>
      </trkpt>
      <trkpt lat="46.348309" lon="15.125296">
        <ele>586.00</ele>
        <time>2018-01-22T13:39:22Z</time>
      </trkpt>
      <trkpt lat="46.348301" lon="15.125319">
        <ele>586.00</ele>
        <time>2018-01-22T13:39:23Z</time>
      </trkpt>
      <trkpt lat="46.348292" lon="15.125344">
        <ele>586.00</ele>
        <time>2018-01-22T13:39:25Z</time>
      </trkpt>
      <trkpt lat="46.348283" lon="15.125361">
        <ele>586.00</ele>
        <time>2018-01-22T13:39:26Z</time>
      </trkpt>
      <trkpt lat="46.348274" lon="15.125382">
        <ele>586.00</ele>
        <time>2018-01-22T13:39:27Z</time>
      </trkpt>
      <trkpt lat="46.348273" lon="15.125396">
        <ele>586.00</ele>
        <time>2018-01-22T13:39:28Z</time>
      </trkpt>
      <trkpt lat="46.348268" lon="15.125409">
        <ele>586.00</ele>
        <time>2018-01-22T13:39:29Z</time>
      </trkpt>
      <trkpt lat="46.348261" lon="15.125431">
        <ele>586.00</ele>
        <time>2018-01-22T13:39:30Z</time>
      </trkpt>
      <trkpt lat="46.348272" lon="15.125451">
        <ele>586.00</ele>
        <time>2018-01-22T13:39:31Z</time>
      </trkpt>
      <trkpt lat="46.348263" lon="15.125475">
        <ele>586.00</ele>
        <time>2018-01-22T13:39:32Z</time>
      </trkpt>
      <trkpt lat="46.348252" lon="15.125488">
        <ele>586.00</ele>
        <time>2018-01-22T13:39:33Z</time>
      </trkpt>
      <trkpt lat="46.348240" lon="15.125507">
        <ele>587.27</ele>
        <time>2018-01-22T13:39:35Z</time>
      </trkpt>
      <trkpt lat="46.348232" lon="15.125515">
        <ele>588.00</ele>
        <time>2018-01-22T13:39:36Z</time>
      </trkpt>
      <trkpt lat="46.348218" lon="15.125530">
        <ele>588.00</ele>
        <time>2018-01-22T13:39:38Z</time>
      </trkpt>
      <trkpt lat="46.348209" lon="15.125544">
        <ele>588.00</ele>
        <time>2018-01-22T13:39:39Z</time>
      </trkpt>
      <trkpt lat="46.348204" lon="15.125558">
        <ele>588.00</ele>
        <time>2018-01-22T13:39:40Z</time>
      </trkpt>
      <trkpt lat="46.348195" lon="15.125570">
        <ele>588.00</ele>
        <time>2018-01-22T13:39:41Z</time>
      </trkpt>
      <trkpt lat="46.348183" lon="15.125582">
        <ele>588.00</ele>
        <time>2018-01-22T13:39:42Z</time>
      </trkpt>
      <trkpt lat="46.348169" lon="15.125590">
        <ele>588.00</ele>
        <time>2018-01-22T13:39:43Z</time>
      </trkpt>
      <trkpt lat="46.348159" lon="15.125605">
        <ele>588.00</ele>
        <time>2018-01-22T13:39:44Z</time>
      </trkpt>
      <trkpt lat="46.348152" lon="15.125623">
        <ele>588.00</ele>
        <time>2018-01-22T13:39:45Z</time>
      </trkpt>
      <trkpt lat="46.348141" lon="15.125636">
        <ele>588.00</ele>
        <time>2018-01-22T13:39:46Z</time>
      </trkpt>
      <trkpt lat="46.348148" lon="15.125649">
        <ele>588.00</ele>
        <time>2018-01-22T13:39:48Z</time>
      </trkpt>
      <trkpt lat="46.348144" lon="15.125666">
        <ele>588.00</ele>
        <time>2018-01-22T13:39:49Z</time>
      </trkpt>
      <trkpt lat="46.348139" lon="15.125693">
        <ele>588.00</ele>
        <time>2018-01-22T13:39:50Z</time>
      </trkpt>
      <trkpt lat="46.348133" lon="15.125717">
        <ele>588.00</ele>
        <time>2018-01-22T13:39:51Z</time>
      </trkpt>
      <trkpt lat="46.348133" lon="15.125735">
        <ele>588.00</ele>
        <time>2018-01-22T13:39:52Z</time>
      </trkpt>
      <trkpt lat="46.348131" lon="15.125749">
        <ele>588.00</ele>
        <time>2018-01-22T13:39:54Z</time>
      </trkpt>
      <trkpt lat="46.348123" lon="15.125762">
        <ele>589.27</ele>
        <time>2018-01-22T13:39:55Z</time>
      </trkpt>
      <trkpt lat="46.348117" lon="15.125775">
        <ele>590.00</ele>
        <time>2018-01-22T13:39:56Z</time>
      </trkpt>
      <trkpt lat="46.348119" lon="15.125791">
        <ele>590.00</ele>
        <time>2018-01-22T13:39:57Z</time>
      </trkpt>
      <trkpt lat="46.348112" lon="15.125805">
        <ele>590.00</ele>
        <time>2018-01-22T13:39:58Z</time>
      </trkpt>
      <trkpt lat="46.348106" lon="15.125818">
        <ele>590.00</ele>
        <time>2018-01-22T13:39:59Z</time>
      </trkpt>
      <trkpt lat="46.348098" lon="15.125829">
        <ele>590.00</ele>
        <time>2018-01-22T13:40:00Z</time>
      </trkpt>
      <trkpt lat="46.348090" lon="15.125835">
        <ele>590.00</ele>
        <time>2018-01-22T13:40:01Z</time>
      </trkpt>
      <trkpt lat="46.348082" lon="15.125845">
        <ele>590.00</ele>
        <time>2018-01-22T13:40:02Z</time>
      </trkpt>
      <trkpt lat="46.348074" lon="15.125858">
        <ele>590.00</ele>
        <time>2018-01-22T13:40:03Z</time>
      </trkpt>
      <trkpt lat="46.348064" lon="15.125872">
        <ele>590.00</ele>
        <time>2018-01-22T13:40:04Z</time>
      </trkpt>
      <trkpt lat="46.348056" lon="15.125890">
        <ele>591.27</ele>
        <time>2018-01-22T13:40:05Z</time>
      </trkpt>
      <trkpt lat="46.348048" lon="15.125905">
        <ele>592.00</ele>
        <time>2018-01-22T13:40:07Z</time>
      </trkpt>
      <trkpt lat="46.348042" lon="15.125885">
        <ele>592.00</ele>
        <time>2018-01-22T13:40:09Z</time>
      </trkpt>
      <trkpt lat="46.348036" lon="15.125901">
        <ele>592.00</ele>
        <time>2018-01-22T13:40:11Z</time>
      </trkpt>
      <trkpt lat="46.348017" lon="15.125921">
        <ele>592.00</ele>
        <time>2018-01-22T13:40:13Z</time>
      </trkpt>
      <trkpt lat="46.348004" lon="15.125938">
        <ele>592.00</ele>
        <time>2018-01-22T13:40:14Z</time>
      </trkpt>
      <trkpt lat="46.347996" lon="15.125949">
        <ele>593.27</ele>
        <time>2018-01-22T13:40:15Z</time>
      </trkpt>
      <trkpt lat="46.347982" lon="15.125960">
        <ele>594.00</ele>
        <time>2018-01-22T13:40:17Z</time>
      </trkpt>
      <trkpt lat="46.347986" lon="15.125984">
        <ele>594.00</ele>
        <time>2018-01-22T13:40:18Z</time>
      </trkpt>
      <trkpt lat="46.347980" lon="15.126005">
        <ele>594.00</ele>
        <time>2018-01-22T13:40:19Z</time>
      </trkpt>
      <trkpt lat="46.347976" lon="15.126018">
        <ele>594.00</ele>
        <time>2018-01-22T13:40:20Z</time>
      </trkpt>
      <trkpt lat="46.347972" lon="15.126030">
        <ele>594.00</ele>
        <time>2018-01-22T13:40:22Z</time>
      </trkpt>
      <trkpt lat="46.347958" lon="15.126042">
        <ele>594.00</ele>
        <time>2018-01-22T13:40:23Z</time>
      </trkpt>
      <trkpt lat="46.347952" lon="15.126055">
        <ele>594.00</ele>
        <time>2018-01-22T13:40:24Z</time>
      </trkpt>
      <trkpt lat="46.347948" lon="15.126070">
        <ele>594.64</ele>
        <time>2018-01-22T13:40:25Z</time>
      </trkpt>
      <trkpt lat="46.347952" lon="15.126085">
        <ele>595.00</ele>
        <time>2018-01-22T13:40:26Z</time>
      </trkpt>
      <trkpt lat="46.347948" lon="15.126104">
        <ele>595.00</ele>
        <time>2018-01-22T13:40:27Z</time>
      </trkpt>
      <trkpt lat="46.347946" lon="15.126121">
        <ele>595.00</ele>
        <time>2018-01-22T13:40:28Z</time>
      </trkpt>
      <trkpt lat="46.347946" lon="15.126137">
        <ele>595.00</ele>
        <time>2018-01-22T13:40:29Z</time>
      </trkpt>
      <trkpt lat="46.347942" lon="15.126151">
        <ele>595.00</ele>
        <time>2018-01-22T13:40:30Z</time>
      </trkpt>
      <trkpt lat="46.347954" lon="15.126151">
        <ele>595.00</ele>
        <time>2018-01-22T13:40:32Z</time>
      </trkpt>
      <trkpt lat="46.347924" lon="15.126147">
        <ele>595.64</ele>
        <time>2018-01-22T13:40:35Z</time>
      </trkpt>
      <trkpt lat="46.347914" lon="15.126146">
        <ele>596.00</ele>
        <time>2018-01-22T13:40:36Z</time>
      </trkpt>
      <trkpt lat="46.347900" lon="15.126138">
        <ele>596.00</ele>
        <time>2018-01-22T13:40:39Z</time>
      </trkpt>
      <trkpt lat="46.347908" lon="15.126119">
        <ele>596.00</ele>
        <time>2018-01-22T13:40:40Z</time>
      </trkpt>
      <trkpt lat="46.347912" lon="15.126104">
        <ele>596.00</ele>
        <time>2018-01-22T13:40:41Z</time>
      </trkpt>
      <trkpt lat="46.347922" lon="15.126099">
        <ele>596.00</ele>
        <time>2018-01-22T13:40:43Z</time>
      </trkpt>
      <trkpt lat="46.347917" lon="15.126112">
        <ele>596.00</ele>
        <time>2018-01-22T13:40:44Z</time>
      </trkpt>
      <trkpt lat="46.347910" lon="15.126131">
        <ele>595.36</ele>
        <time>2018-01-22T13:40:45Z</time>
      </trkpt>
      <trkpt lat="46.347900" lon="15.126157">
        <ele>595.00</ele>
        <time>2018-01-22T13:40:46Z</time>
      </trkpt>
      <trkpt lat="46.347896" lon="15.126191">
        <ele>595.00</ele>
        <time>2018-01-22T13:40:47Z</time>
      </trkpt>
      <trkpt lat="46.347888" lon="15.126225">
        <ele>595.00</ele>
        <time>2018-01-22T13:40:48Z</time>
      </trkpt>
      <trkpt lat="46.347878" lon="15.126248">
        <ele>595.00</ele>
        <time>2018-01-22T13:40:49Z</time>
      </trkpt>
      <trkpt lat="46.347868" lon="15.126271">
        <ele>595.00</ele>
        <time>2018-01-22T13:40:50Z</time>
      </trkpt>
      <trkpt lat="46.347858" lon="15.126285">
        <ele>595.00</ele>
        <time>2018-01-22T13:40:51Z</time>
      </trkpt>
      <trkpt lat="46.347850" lon="15.126301">
        <ele>595.00</ele>
        <time>2018-01-22T13:40:52Z</time>
      </trkpt>
      <trkpt lat="46.347842" lon="15.126325">
        <ele>595.00</ele>
        <time>2018-01-22T13:40:53Z</time>
      </trkpt>
      <trkpt lat="46.347846" lon="15.126348">
        <ele>595.64</ele>
        <time>2018-01-22T13:40:55Z</time>
      </trkpt>
    </trkseg>
  </trk>
</gpx>
